Return to Metar
METAR CYNL 191200Z AUTO 31006KT SCT034 M01/M06 A3029 RMK AO1 SLP287
SPECI CYNL 191117Z AUTO 31004KT OVC030 M00/M06 A3028 RMK AO1 PRESRR SLP281
SPECI CYNL 191102Z AUTO 32008KT BKN026 OVC033 00/M05 A3028 RMK AO1 PRESRR SLP281
METAR CYNL 191100Z AUTO 31008KT SCT026 OVC033 00/M05 A3028 RMK AO1 PRESRR SLP281
METAR CYNL 191000Z AUTO 30008KT FEW016 OVC037 00/M02 A3026 RMK AO1 SLP273
METAR CYNL 190900Z AUTO 27003KT FEW019 BKN039 00/M02 A3023 RMK AO1 SLP264
METAR CYNL 190800Z AUTO 28006KT OVC038 00/M03 A3022 RMK AO1 SLP259
METAR CYNL 190700Z AUTO 30006KT OVC040 01/M05 A3020 RMK AO1 PRESRR SLP254
METAR CYNL 190600Z AUTO 30006KT OVC040 01/M03 A3018 RMK AO1 PRESRR SLP247
METAR CYNL 190500Z AUTO 30007KT OVC045 01/M03 A3015 RMK AO1 SLP239
METAR CYNL 190400Z AUTO 29006KT OVC046 01/M03 A3014 RMK AO1 PRESRR SLP232
METAR CYNL 190300Z AUTO 29005KT OVC050 01/M03 A3011 RMK AO1 PRESRR SLP224
METAR CYNL 190200Z AUTO 30007G15KT OVC047 01/M03 A3009 RMK AO1 PRESRR SLP215
METAR CYNL 190100Z AUTO 30005KT OVC046 01/M03 A3006 RMK AO1 PRESRR SLP207
METAR CYNL 190000Z AUTO 31007KT OVC046 02/M05 A3003 RMK AO1 PRESRR SLP196
METAR CYNL 182300Z AUTO 31012G19KT BKN049 02/M04 A3000 RMK AO1 PRESRR SLP186
SPECI CYNL 182222Z AUTO 31007G19KT FEW015 SCT031 BKN050 01/M03 A2998 RMK AO1 PRESRR SLP178
SPECI CYNL 182220Z AUTO 31009G19KT VV014 02/M03 A2998 RMK AO1 PRESRR SLP177
METAR CYNL 182200Z AUTO 30010KT FEW029 SCT040 BKN052 03/M04 A2996 RMK AO1 PRESRR SLP171
METAR CYNL 182100Z AUTO 31007KT BKN039 03/M04 A2994 RMK AO1 PRESRR SLP162
METAR CYNL 182000Z AUTO 31009G16KT FEW025 SCT030 03/M03 A2992 RMK AO1 SLP155
SPECI CYNL 181936Z AUTO 32007KT SCT027 02/M03 A2991 RMK AO1 SLP154
SPECI CYNL 181928Z AUTO 31007KT BKN026 02/M02 A2991 RMK AO1 SLP154
SPECI CYNL 181926Z AUTO 31005KT SCT023 BKN030 02/M02 A2991 RMK AO1 SLP154
SPECI CYNL 181917Z AUTO 32007KT FEW020 BKN027 02/M02 A2991 RMK AO1 SLP154
SPECI CYNL 181915Z AUTO 31007KT BKN024 02/M02 A2991 RMK AO1 SLP154
SPECI CYNL 181914Z AUTO 31008KT FEW019 BKN026 02/M02 A2991 RMK AO1 SLP154
METAR CYNL 181900Z AUTO 32005KT FEW017 02/M02 A2991 RMK AO1 SLP153
SPECI CYNL 181817Z AUTO 31005KT FEW007 SCT012 01/M00 A2990 RMK AO1 PRESRR SLP152
SPECI CYNL 181815Z AUTO 30005KT VV008 01/M00 A2990 RMK AO1 PRESRR SLP152
METAR CYNL 181800Z AUTO 31008KT FEW009 SCT012 01/M01 A2990 RMK AO1 PRESRR SLP151
SPECI CYNL 181753Z AUTO 30007KT FEW009 SCT013 01/M01 A2990 RMK AO1 PRESRR SLP150
SPECI CYNL 181752Z AUTO 30007KT FEW007 SCT013 BKN016 01/M00 A2990 RMK AO1 PRESRR SLP150
SPECI CYNL 181743Z AUTO 30006KT FEW007 SCT009 BKN013 01/M00 A2990 RMK AO1 PRESRR SLP149
SPECI CYNL 181735Z AUTO 28005KT BKN007 OVC013 01/00 A2990 RMK AO1 PRESRR SLP149
SPECI CYNL 181730Z AUTO 29006KT VV010 01/00 A2989 RMK AO1 PRESRR SLP148
SPECI CYNL 181703Z AUTO 30005KT BKN008 A2988 RMK AO1 PRESRR SLP146
SPECI CYNL 181653Z AUTO 30004KT VV009 01/00 A2988 RMK AO1 PRESRR SLP145
SPECI CYNL 181651Z AUTO 31005KT FEW007 SCT009 BKN012 01/00 A2988 RMK AO1 PRESRR SLP145
SPECI CYNL 181645Z AUTO 31003KT SCT007 01/00 A2988 RMK AO1 PRESRR SLP143
SPECI CYNL 181642Z AUTO 31004KT SCT007 BKN011 01/00 A2988 RMK AO1 PRESRR SLP143
SPECI CYNL 181620Z AUTO 30005KT VV009 01/M00 A2987 RMK AO1 PRESRR SLP139
SPECI CYNL 181617Z AUTO 30004KT VV010 01/M00 A2986 RMK AO1 PRESRR SLP138
SPECI CYNL 181615Z AUTO 32004KT VV009 01/M00 A2986 RMK AO1 PRESRR SLP138
SPECI CYNL 181612Z AUTO 33005KT VV010 01/M00 A2986 RMK AO1 PRESRR SLP137
SPECI CYNL 181610Z AUTO 32004KT VV009 01/M00 A2986 RMK AO1 PRESRR SLP137
METAR CYNL 181600Z AUTO 31003KT FEW009 01/M00 A2986 RMK AO1 PRESRR SLP135
METAR CYNL 181500Z AUTO 32004KT FEW008 01/M01 A2983 RMK AO1 PRESRR SLP127
SPECI CYNL 181431Z AUTO 34005KT SCT009 01/M01 A2982 RMK AO1 SLP123
SPECI CYNL 181428Z AUTO 34005KT SCT009 BKN011 01/M01 A2982 RMK AO1 SLP123
SPECI CYNL 181427Z AUTO 32004KT BKN009 01/M01 A2982 RMK AO1 SLP123
SPECI CYNL 181426Z AUTO 32004KT SCT009 BKN011 01/M01 A2982 RMK AO1 SLP122
SPECI CYNL 181424Z AUTO 34005KT BKN009 01/M01 A2982 RMK AO1 SLP122
SPECI CYNL 181423Z AUTO 34005KT SCT009 BKN011 01/M01 A2982 RMK AO1 SLP121
SPECI CYNL 181422Z AUTO 34006KT SCT009 01/M01 A2982 RMK AO1 SLP121
SPECI CYNL 181420Z AUTO 34008KT SCT009 BKN011 01/M01 A2982 RMK AO1 SLP121
SPECI CYNL 181412Z AUTO 33005KT BKN009 01/M01 A2981 RMK AO1 SLP120
SPECI CYNL 181411Z AUTO 33005KT SCT009 BKN011 01/M01 A2981 RMK AO1 SLP120
METAR CYNL 181400Z AUTO 33005KT SCT009 01/M01 A2981 RMK AO1 SLP119
SPECI CYNL 181309Z AUTO 34004KT SCT008 01/M01 A2979 RMK AO1 SLP111
SPECI CYNL 181307Z AUTO 35005KT SCT008 BKN010 01/M01 A2979 RMK AO1 SLP110
METAR CYNL 181300Z AUTO 34005KT BKN008 BKN010 01/M01 A2979 RMK AO1 SLP111
METAR CYNL 181200Z AUTO 34006KT OVC008 01/M01 A2979 RMK AO1 SLP109
METAR CYNL 181100Z AUTO 35007KT OVC008 01/M01 A2978 RMK AO1 SLP105
METAR CYNL 181000Z AUTO 34006KT BKN008 OVC010 01/M01 A2976 RMK AO1 SLP095
SPECI CYNL 180913Z AUTO 34006KT BKN009 BKN013 01/M01 A2976 RMK AO1 SLP094
METAR CYNL 180900Z AUTO 34007KT BKN010 BKN012 01/M01 A2975 RMK AO1 SLP091
SPECI CYNL 180848Z AUTO 34007KT OVC010 01/M01 A2975 RMK AO1 SLP091
METAR CYNL 180800Z AUTO 33006KT OVC008 01/M00 A2974 RMK AO1 SLP087
METAR CYNL 180700Z AUTO 33006KT OVC005 01/M00 A2972 RMK AO1 PRESRR SLP082
METAR CYNL 180600Z AUTO 33006KT OVC006 01/00 A2969 RMK AO1 SLP075
METAR CYNL 180500Z AUTO 32008KT OVC005 01/00 A2967 RMK AO1 SLP068
SPECI CYNL 180441Z AUTO 33007G16KT OVC005 01/00 A2967 RMK AO1 SLP069
SPECI CYNL 180421Z AUTO 33007G17KT OVC004 01/01 A2966 RMK AO1 SLP066
METAR CYNL 180400Z AUTO 31008KT OVC005 01/01 A2967 RMK AO1 SLP069
SPECI CYNL 180333Z AUTO 32006KT SCT006 BKN007 02/01 A2966 RMK AO1 PRESRR SLP067
METAR CYNL 180300Z AUTO 33006KT FEW006 BKN140 02/01 A2966 RMK AO1 PRESRR SLP065
SPECI CYNL 180246Z AUTO 29004KT FEW007 SCT140 02/01 A2966 RMK AO1 PRESRR SLP066
METAR CYNL 180200Z AUTO 33006KT BKN150 04/01 A2963 RMK AO1 PRESRR SLP056
METAR CYNL 180100Z AUTO 33004KT FEW120 04/00 A2961 RMK AO1 SLP048
METAR CYNL 180000Z AUTO 32004KT CLR 05/00 A2959 RMK AO1 SLP043
METAR CYNL 172300Z AUTO 00000KT FEW120 09/02 A2958 RMK AO1 SLP033
METAR CYNL 172200Z AUTO 19003KT FEW120 08/01 A2958 RMK AO1 SLP037
METAR CYNL 172100Z AUTO 21005KT FEW086 08/00 A2959 RMK AO1 PRESRR SLP039
METAR CYNL 172000Z AUTO 15008G15KT CLR 07/M00 A2956 RMK AO1 PRESFR SLP033
METAR CYNL 171900Z AUTO 14010KT CLR 06/M01 A2960 RMK AO1 PRESFR SLP046
METAR CYNL 171800Z AUTO 13013KT CLR 05/M02 A2963 RMK AO1 PRESFR SLP057
METAR CYNL 171700Z AUTO 10007KT FEW084 03/M01 A2968 RMK AO1 PRESFR SLP077
METAR CYNL 171600Z AUTO 09004KT CLR 02/M01 A2972 RMK AO1 PRESFR SLP093
METAR CYNL 171500Z AUTO 12004KT CLR 01/M01 A2975 RMK AO1 SLP103
METAR CYNL 171400Z AUTO 14003KT CLR 01/M02 A2977 RMK AO1 SLP108
METAR CYNL 171300Z AUTO 00000KT CLR M00/M02 A2978 RMK AO1 PRESFR SLP111
METAR CYNL 171200Z AUTO 14002KT CLR M01/M02 A2980 RMK AO1 SLP117
METAR CYNL 171100Z AUTO 00000KT CLR M01/M03 A2981 RMK AO1 PRESFR SLP117
METAR CYNL 171000Z AUTO 23003KT CLR M02/M04 A2983 RMK AO1 SLP123
METAR CYNL 170900Z AUTO 25004KT SCT160 M03/M05 A2983 RMK AO1 SLP125
METAR CYNL 170800Z AUTO 26004KT CLR M03/M06 A2984 RMK AO1 SLP128
METAR CYNL 170700Z AUTO 25003KT CLR M02/M05 A2984 RMK AO1 SLP127
METAR CYNL 170600Z AUTO 27003KT CLR M01/M06 A2984 RMK AO1 SLP129
METAR CYNL 170500Z AUTO 26002KT CLR M02/M05 A2982 RMK AO1 SLP126
METAR CYNL 170400Z AUTO 32003KT CLR M02/M05 A2982 RMK AO1 SLP126
METAR CYNL 170300Z AUTO 26003KT CLR M01/M04 A2982 RMK AO1 SLP127
METAR CYNL 170200Z AUTO 26003KT CLR 00/M05 A2982 RMK AO1 SLP126
METAR CYNL 170100Z AUTO 26003KT CLR 01/M04 A2980 RMK AO1 SLP123
METAR CYNL 170000Z AUTO 26005KT CLR 05/M03 A2980 RMK AO1 SLP119
METAR CYNL 162300Z AUTO 27004KT CLR 07/00 A2978 RMK AO1 SLP111
METAR CYNL 162200Z AUTO 28009KT SCT032 08/01 A2977 RMK AO1 SLP108
SPECI CYNL 162101Z AUTO 28006KT SCT025 BKN032 06/01 A2977 RMK AO1 SLP109
METAR CYNL 162100Z AUTO 27007KT BKN028 06/01 A2977 RMK AO1 SLP109
SPECI CYNL 162048Z AUTO 26006KT BKN025 06/01 A2977 RMK AO1 SLP109
SPECI CYNL 162034Z AUTO 28005KT BKN023 06/01 A2977 RMK AO1 SLP108
METAR CYNL 162000Z AUTO 28005G16KT FEW017 BKN035 06/02 A2976 RMK AO1 SLP104
SPECI CYNL 161948Z AUTO 28008KT FEW011 SCT018 BKN037 05/01 A2976 RMK AO1 SLP104
SPECI CYNL 161938Z AUTO 28010G16KT SCT010 BKN016 04/01 A2976 RMK AO1 SLP105
SPECI CYNL 161936Z AUTO 27009G16KT FEW010 SCT012 BKN037 04/01 A2976 RMK AO1 SLP105
METAR CYNL 161900Z AUTO 27008KT BKN010 03/01 A2974 RMK AO1 SLP101
SPECI CYNL 161849Z AUTO 28008KT BKN010 03/01 A2974 RMK AO1 SLP099
SPECI CYNL 161837Z AUTO 29008G18KT SCT009 BKN042 03/01 A2974 RMK AO1 SLP099
SPECI CYNL 161813Z AUTO 27008G16KT BKN009 04/01 A2974 RMK AO1 SLP098
METAR CYNL 161800Z AUTO 27010KT FEW008 SCT056 03/01 A2973 RMK AO1 SLP097
SPECI CYNL 161707Z AUTO 28009KT SCT006 BKN060 01/00 A2972 RMK AO1 SLP094
METAR CYNL 161700Z AUTO 27007KT BKN006 OVC060 01/01 A2972 RMK AO1 SLP093
METAR CYNL 161600Z AUTO 28004KT OVC005 00/M00 A2970 RMK AO1 SLP088
SPECI CYNL 161541Z AUTO 28004KT SCT004 BKN006 BKN048 M00/M00 A2969 RMK AO1 SLP086
SPECI CYNL 161539Z AUTO 28004KT BKN004 BKN048 M00/M00 A2969 RMK AO1 SLP085
SPECI CYNL 161537Z AUTO 29005KT SCT004 BKN006 BKN068 M00/M00 A2969 RMK AO1 SLP085
SPECI CYNL 161525Z AUTO 30004KT FEW005 SCT048 BKN066 M01/M01 A2969 RMK AO1 SLP085
METAR CYNL 161500Z AUTO 26002KT OVC062 M01/M01 A2968 RMK AO1 SLP084
METAR CYNL 161400Z AUTO 00000KT FEW001 BKN066 M04/M04 A2967 RMK AO1 SLP082
SPECI CYNL 161339Z AUTO 00000KT SCT001 M05/M05 A2967 RMK AO1 SLP080
SPECI CYNL 161331Z AUTO 24002KT VV001 M05/M05 A2967 RMK AO1 SLP081
METAR CYNL 161300Z AUTO 00000KT FEW001 M05/M05 A2967 RMK AO1 SLP081
SPECI CYNL 161250Z AUTO 25002KT FEW001 M05/M05 A2966 RMK AO1 SLP078
METAR CYNL 161200Z AUTO 25004KT CLR M05/M06 A2966 RMK AO1 SLP078
METAR CYNL 161100Z AUTO 00000KT CLR M05/M06 A2965 RMK AO1 SLP070
METAR CYNL 161000Z AUTO 00000KT FEW008 M05/M06 A2964 RMK AO1 SLP063
METAR CYNL 160900Z AUTO ///// SCT007 M05/M05 A2964 RMK AO1 SLP067
SPECI CYNL 160837Z AUTO 00000KT FEW007 M05/M05 A2965 RMK AO1 SLP068
METAR CYNL 160800Z AUTO 24002KT CLR M05/M05 A2964 RMK AO1 SLP066
METAR CYNL 160700Z AUTO 00000KT CLR M04/M05 A2963 RMK AO1 SLP063
METAR CYNL 160600Z AUTO 00000KT CLR M04/M04 A2964 RMK AO1 SLP066
METAR CYNL 160500Z AUTO 00000KT CLR M04/M04 A2965 RMK AO1 SLP069
METAR CYNL 160400Z AUTO 00000KT CLR M03/M04 A2966 RMK AO1 SLP072
METAR CYNL 160300Z AUTO 25002KT CLR M02/M02 A2966 RMK AO1 SLP072
METAR CYNL 160200Z AUTO 00000KT CLR M02/M02 A2966 RMK AO1 SLP072
METAR CYNL 160100Z AUTO 00000KT CLR M01/M01 A2966 RMK AO1 SLP072
METAR CYNL 160000Z AUTO 02003KT CLR 01/M00 A2966 RMK AO1 SLP070
METAR CYNL 152300Z AUTO 33004KT SCT015 04/00 A2967 RMK AO1 SLP069
SPECI CYNL 152256Z AUTO 33004KT SCT015 04/00 A2967 RMK AO1 SLP069
SPECI CYNL 152245Z AUTO 34004KT BKN015 04/01 A2967 RMK AO1 SLP068
SPECI CYNL 152230Z AUTO 30005KT BKN014 04/00 A2967 RMK AO1 SLP069
SPECI CYNL 152228Z AUTO 29005KT SCT013 BKN016 04/00 A2967 RMK AO1 SLP069
METAR CYNL 152200Z AUTO 29005KT OVC014 03/00 A2967 RMK AO1 SLP070
METAR CYNL 152100Z AUTO 29006KT OVC012 03/00 A2966 RMK AO1 SLP068
METAR CYNL 152000Z AUTO 30005KT OVC011 03/01 A2966 RMK AO1 SLP069
METAR CYNL 151900Z AUTO 31007KT OVC010 02/00 A2967 RMK AO1 SLP070
SPECI CYNL 151845Z AUTO 30006KT OVC010 02/00 A2967 RMK AO1 SLP070
SPECI CYNL 151817Z AUTO 29007KT FEW007 BKN009 BKN012 02/00 A2967 RMK AO1 SLP070
SPECI CYNL 151816Z AUTO 29007KT FEW007 BKN010 02/00 A2967 RMK AO1 SLP070
SPECI CYNL 151812Z AUTO 30007KT FEW007 BKN009 BKN012 02/00 A2967 RMK AO1 SLP071
SPECI CYNL 151811Z AUTO 31008KT FEW007 BKN010 02/M00 A2967 RMK AO1 SLP071
METAR CYNL 151800Z AUTO 30006KT BKN007 BKN009 02/00 A2967 RMK AO1 SLP072
METAR CYNL 151700Z AUTO 31006KT BKN007 01/M00 A2968 RMK AO1 SLP075
METAR CYNL 151600Z AUTO 31004KT OVC007 01/M00 A2968 RMK AO1 SLP075
SPECI CYNL 151532Z AUTO 32004KT BKN007 01/00 A2968 RMK AO1 SLP076
SPECI CYNL 151506Z AUTO 32004KT SCT006 01/00 A2969 RMK AO1 SLP078
METAR CYNL 151500Z AUTO 31005KT BKN006 01/00 A2969 RMK AO1 SLP078
SPECI CYNL 151458Z AUTO 31004KT BKN006 01/00 A2969 RMK AO1 SLP078
SPECI CYNL 151449Z AUTO 32004KT SCT006 01/00 A2968 RMK AO1 SLP077
SPECI CYNL 151440Z AUTO 32003KT VV006 00/00 A2968 RMK AO1 SLP077
SPECI CYNL 151407Z AUTO 32004KT SCT005 BKN032 M00/M00 A2969 RMK AO1 SLP080
METAR CYNL 151400Z AUTO 31003KT VV006 M00/M00 A2969 RMK AO1 SLP081
SPECI CYNL 151347Z AUTO 31003KT VV005 M00/M00 A2969 RMK AO1 SLP081
SPECI CYNL 151346Z AUTO 31003KT VV004 M00/M00 A2969 RMK AO1 SLP081
SPECI CYNL 151318Z AUTO 31004KT VV005 M00/M00 A2969 RMK AO1 SLP081
SPECI CYNL 151312Z AUTO 32003KT VV004 M00/M00 A2969 RMK AO1 SLP081
SPECI CYNL 151303Z AUTO 32003KT VV005 M00/M00 A2969 RMK AO1 SLP081
METAR CYNL 151300Z AUTO 31003KT VV004 M00/M00 A2969 RMK AO1 SLP081
SPECI CYNL 151255Z AUTO 32003KT VV004 M00/M00 A2969 RMK AO1 SLP081
SPECI CYNL 151254Z AUTO 32004KT BKN005 BKN006 OVC034 M00/M00 A2969 RMK AO1 SLP080
SPECI CYNL 151247Z AUTO 31003KT VV004 M00/M00 A2969 RMK AO1 SLP081
METAR CYNL 151200Z AUTO 33003KT VV005 M00/M01 A2969 RMK AO1 SLP081
SPECI CYNL 151159Z AUTO 34003KT VV005 M00/M01 A2969 RMK AO1 SLP081
SPECI CYNL 151132Z AUTO 33004KT VV004 M00/M00 A2969 RMK AO1 SLP080
METAR CYNL 151100Z AUTO 33003KT VV005 M00/M00 A2969 RMK AO1 SLP080
SPECI CYNL 151028Z AUTO 34004KT VV005 M00/M00 A2969 RMK AO1 SLP081
SPECI CYNL 151025Z AUTO 35003KT VV004 M00/M00 A2969 RMK AO1 SLP081
SPECI CYNL 151013Z AUTO 35004KT VV005 M00/M00 A2970 RMK AO1 SLP081
METAR CYNL 151000Z AUTO 00003KT VV004 M00/M00 A2970 RMK AO1 SLP082
SPECI CYNL 150956Z AUTO 01003KT VV004 M00/M00 A2970 RMK AO1 SLP082
SPECI CYNL 150955Z AUTO 01003KT VV005 M00/M00 A2970 RMK AO1 SLP082
SPECI CYNL 150940Z AUTO 35005KT VV004 M00/M00 A2971 RMK AO1 SLP084
SPECI CYNL 150939Z AUTO 00005KT VV005 M00/M00 A2971 RMK AO1 SLP084
SPECI CYNL 150937Z AUTO 00005KT VV004 M00/M00 A2971 RMK AO1 SLP084
SPECI CYNL 150931Z AUTO 00004KT BKN005 00/M00 A2971 RMK AO1 SLP085
SPECI CYNL 150929Z AUTO 00004KT BKN004 00/M00 A2971 RMK AO1 SLP085
SPECI CYNL 150914Z AUTO 00006KT VV005 00/M00 A2971 RMK AO1 SLP086
SPECI CYNL 150910Z AUTO 00005KT VV004 00/M00 A2971 RMK AO1 SLP087
SPECI CYNL 150903Z AUTO 00005KT BKN005 00/00 A2971 RMK AO1 SLP087
SPECI CYNL 150902Z AUTO 35005KT VV004 00/00 A2971 RMK AO1 SLP087
METAR CYNL 150900Z AUTO 35004KT VV005 00/00 A2972 RMK AO1 SLP087
METAR CYNL 150800Z AUTO 35004KT VV005 00/00 A2973 RMK AO1 SLP090
SPECI CYNL 150742Z AUTO 34003KT VV005 00/00 A2973 RMK AO1 SLP091
SPECI CYNL 150740Z AUTO 34004KT VV004 00/00 A2973 RMK AO1 SLP092
SPECI CYNL 150713Z AUTO 34004KT BKN005 00/00 A2973 RMK AO1 SLP091
SPECI CYNL 150711Z AUTO 35004KT VV004 00/00 A2973 RMK AO1 SLP091
METAR CYNL 150700Z AUTO 34004KT VV006 00/00 A2973 RMK AO1 SLP092
METAR CYNL 150600Z AUTO 34003KT VV007 00/00 A2974 RMK AO1 SLP095
SPECI CYNL 150501Z AUTO 35004KT VV006 00/00 A2976 RMK AO1 SLP100
METAR CYNL 150500Z AUTO 35004KT SCT006 00/00 A2976 RMK AO1 SLP100
SPECI CYNL 150455Z AUTO 35004KT SCT005 00/00 A2976 RMK AO1 SLP101
SPECI CYNL 150453Z AUTO 00004KT VV005 00/00 A2976 RMK AO1 SLP101
SPECI CYNL 150426Z AUTO 01003KT SCT006 00/00 A2976 RMK AO1 SLP103
METAR CYNL 150400Z AUTO 01003KT VV006 00/00 A2977 RMK AO1 SLP105
METAR CYNL 150300Z AUTO 02004KT VV005 01/01 A2978 RMK AO1 SLP107
METAR CYNL 150200Z AUTO 03003KT VV006 01/01 A2978 RMK AO1 SLP109
SPECI CYNL 150116Z AUTO 04006KT VV006 01/01 A2979 RMK AO1 SLP111
METAR CYNL 150100Z AUTO 04004KT OVC004 01/01 A2979 RMK AO1 SLP111
SPECI CYNL 150056Z AUTO 04005KT OVC004 01/01 A2979 RMK AO1 SLP111
SPECI CYNL 150053Z AUTO 06003KT VV005 01/01 A2979 RMK AO1 SLP111
METAR CYNL 150000Z AUTO 03004KT VV003 01/01 A2980 RMK AO1 SLP116
SPECI CYNL 142351Z AUTO 03004KT VV003 01/01 A2981 RMK AO1 SLP116
SPECI CYNL 142350Z AUTO 03004KT VV002 01/01 A2981 RMK AO1 SLP116
METAR CYNL 142300Z AUTO 03005KT OVC003 02/01 A2981 RMK AO1 SLP118
SPECI CYNL 142206Z AUTO 06005KT BKN004 OVC007 02/02 A2981 RMK AO1 SLP118
METAR CYNL 142200Z AUTO 04005KT BKN005 OVC007 02/01 A2981 RMK AO1 SLP118
METAR CYNL 142100Z AUTO 04006KT OVC007 03/02 A2981 RMK AO1 SLP116
METAR CYNL 142000Z AUTO 03005KT OVC008 03/01 A2982 RMK AO1 SLP119
SPECI CYNL 141912Z AUTO 04007KT BKN008 OVC011 03/02 A2983 RMK AO1 SLP123
SPECI CYNL 141911Z AUTO 05008KT SCT008 OVC012 03/02 A2983 RMK AO1 SLP123
SPECI CYNL 141908Z AUTO 04005KT BKN009 OVC012 03/02 A2983 RMK AO1 SLP123
METAR CYNL 141900Z AUTO 04008KT SCT008 OVC012 03/02 A2983 RMK AO1 SLP124
SPECI CYNL 141848Z AUTO 05006KT SCT008 OVC012 03/02 A2984 RMK AO1 SLP125
SPECI CYNL 141847Z AUTO 04005KT BKN008 OVC012 03/02 A2984 RMK AO1 SLP125
SPECI CYNL 141845Z AUTO 05006KT SCT008 BKN012 OVC015 03/02 A2984 RMK AO1 SLP125
SPECI CYNL 141831Z AUTO 05008KT FEW005 BKN008 OVC014 03/02 A2984 RMK AO1 SLP127
SPECI CYNL 141830Z AUTO 05007KT FEW005 SCT007 BKN010 03/02 A2984 RMK AO1 SLP127
SPECI CYNL 141810Z AUTO 04006KT OVC005 03/02 A2985 RMK AO1 SLP129
METAR CYNL 141800Z AUTO 04005KT OVC004 03/03 A2985 RMK AO1 SLP130
SPECI CYNL 141716Z AUTO 04008KT OVC004 02/02 A2986 RMK AO1 SLP132
METAR CYNL 141700Z AUTO 05005KT BKN005 OVC010 02/02 A2986 RMK AO1 SLP133
SPECI CYNL 141648Z AUTO 04007KT BKN005 BKN009 OVC013 02/02 A2986 RMK AO1 SLP134
SPECI CYNL 141647Z AUTO 03007KT SCT005 BKN010 OVC013 02/02 A2986 RMK AO1 SLP134
SPECI CYNL 141645Z AUTO 03007KT SCT006 BKN009 BKN011 02/02 A2986 RMK AO1 SLP134
SPECI CYNL 141636Z AUTO 02005KT FEW006 BKN010 OVC020 03/02 A2986 RMK AO1 SLP134
SPECI CYNL 141632Z AUTO 04004KT SCT010 BKN014 OVC021 03/02 A2986 RMK AO1 SLP135
METAR CYNL 141600Z AUTO 04004KT FEW006 SCT017 OVC022 03/02 A2987 RMK AO1 SLP138
SPECI CYNL 141513Z AUTO 06002KT FEW007 BKN015 02/02 A2989 RMK AO1 SLP143
SPECI CYNL 141511Z AUTO 07003KT FEW007 BKN014 02/02 A2989 RMK AO1 SLP143
SPECI CYNL 141503Z AUTO 08003KT FEW007 SCT016 02/02 A2989 RMK AO1 SLP144
METAR CYNL 141500Z AUTO 08005KT FEW006 SCT016 BKN021 02/02 A2989 RMK AO1 SLP144
SPECI CYNL 141456Z AUTO 08005KT FEW007 SCT012 BKN015 02/02 A2989 RMK AO1 SLP145
SPECI CYNL 141454Z AUTO 09004KT FEW007 BKN014 BKN021 02/02 A2989 RMK AO1 SLP145
SPECI CYNL 141451Z AUTO 10003KT VV009 02/02 A2989 RMK AO1 SLP146
SPECI CYNL 141448Z AUTO 09006KT VV010 02/02 A2989 RMK AO1 SLP146
SPECI CYNL 141443Z AUTO 09004KT FEW007 SCT014 BKN020 02/02 A2989 RMK AO1 SLP146
SPECI CYNL 141439Z AUTO 09003KT BKN015 BKN020 02/02 A2989 RMK AO1 SLP146
SPECI CYNL 141438Z AUTO 09003KT BKN014 BKN019 02/02 A2989 RMK AO1 SLP146
SPECI CYNL 141437Z AUTO 09003KT BKN015 02/02 A2989 RMK AO1 SLP146
SPECI CYNL 141425Z AUTO 09004KT FEW006 BKN013 02/02 A2990 RMK AO1 SLP147
SPECI CYNL 141423Z AUTO 09005KT FEW006 SCT013 BKN015 02/02 A2990 RMK AO1 SLP147
SPECI CYNL 141420Z AUTO 09004KT VV013 02/02 A2990 RMK AO1 SLP147
SPECI CYNL 141414Z AUTO 09005KT FEW006 SCT008 BKN015 02/02 A2990 RMK AO1 SLP148
SPECI CYNL 141413Z AUTO 08005KT FEW006 SCT008 BKN011 02/02 A2990 RMK AO1 SLP148
SPECI CYNL 141412Z AUTO 08006KT VV010 02/02 A2990 RMK AO1 SLP148
SPECI CYNL 141409Z AUTO 09005KT VV008 02/02 A2990 RMK AO1 SLP149
METAR CYNL 141400Z AUTO 09005KT SCT008 BKN010 OVC015 02/02 A2991 RMK AO1 SLP150
SPECI CYNL 141356Z AUTO 09005KT SCT008 BKN010 BKN012 02/02 A2991 RMK AO1 SLP150
SPECI CYNL 141353Z AUTO 10006KT VV009 02/02 A2990 RMK AO1 SLP150
SPECI CYNL 141340Z AUTO 09003KT SCT007 BKN012 OVC017 02/02 A2990 RMK AO1 SLP150
METAR CYNL 141300Z AUTO 06003KT FEW006 SCT008 BKN018 02/02 A2990 RMK AO1 SLP148
SPECI CYNL 141248Z AUTO 00000KT FEW005 BKN027 02/02 A2990 RMK AO1 SLP148
SPECI CYNL 141230Z AUTO 00000KT SCT006 02/02 A2990 RMK AO1 SLP149
SPECI CYNL 141229Z AUTO 00000KT SCT006 BKN023 02/02 A2990 RMK AO1 SLP149
SPECI CYNL 141201Z AUTO 12002KT VV008 02/02 A2990 RMK AO1 SLP150
METAR CYNL 141200Z AUTO 00000KT SCT007 BKN016 OVC021 02/02 A2990 RMK AO1 SLP150
SPECI CYNL 141136Z AUTO 14003KT FEW003 SCT006 BKN015 02/02 A2991 RMK AO1 SLP150
SPECI CYNL 141102Z AUTO 11003KT VV009 02/02 A2992 RMK AO1 SLP153
METAR CYNL 141100Z AUTO 11003KT VV010 02/02 A2992 RMK AO1 SLP153
SPECI CYNL 141056Z AUTO 11002KT VV010 02/02 A2992 RMK AO1 PRESFR SLP150
SPECI CYNL 141036Z AUTO 09003KT VV009 02/02 A2993 RMK AO1 PRESFR SLP153
SPECI CYNL 141033Z AUTO 10003KT SCT005 OVC010 02/02 A2993 RMK AO1 PRESFR SLP153
SPECI CYNL 141031Z AUTO 09003KT SCT005 BKN009 OVC011 02/02 A2993 RMK AO1 PRESFR SLP153
SPECI CYNL 141027Z AUTO 10003KT SCT005 BKN010 OVC020 02/02 A2993 RMK AO1 PRESFR SLP153
SPECI CYNL 141002Z AUTO 00000KT FEW007 BKN019 02/02 A2993 RMK AO1 PRESFR SLP155
METAR CYNL 141000Z AUTO 09002KT BKN019 02/02 A2993 RMK AO1 PRESFR SLP155
METAR CYNL 140900Z AUTO 11003KT SCT008 BKN015 OVC025 02/01 A2996 RMK AO1 SLP162
SPECI CYNL 140857Z AUTO 11004KT SCT008 BKN015 OVC025 02/01 A2996 RMK AO1 SLP163
SPECI CYNL 140852Z AUTO 10003KT SCT008 OVC025 02/00 A2996 RMK AO1 SLP164
SPECI CYNL 140851Z AUTO 11004KT SCT008 BKN010 OVC025 02/00 A2996 RMK AO1 SLP164
SPECI CYNL 140850Z AUTO 11004KT BKN009 OVC025 02/00 A2996 RMK AO1 SLP164
SPECI CYNL 140848Z AUTO 11003KT SCT008 BKN011 OVC025 02/00 A2996 RMK AO1 SLP164
SPECI CYNL 140846Z AUTO 10003KT BKN008 OVC025 02/00 A2996 RMK AO1 SLP164
SPECI CYNL 140845Z AUTO 10003KT SCT008 BKN010 OVC024 02/00 A2996 RMK AO1 SLP165
SPECI CYNL 140843Z AUTO 11003KT BKN008 OVC024 02/00 A2996 RMK AO1 SLP165
SPECI CYNL 140842Z AUTO 10003KT SCT008 BKN010 BKN025 02/00 A2996 RMK AO1 SLP165
SPECI CYNL 140841Z AUTO 10003KT BKN009 BKN025 02/00 A2996 RMK AO1 SLP165
SPECI CYNL 140839Z AUTO 11003KT FEW007 SCT009 BKN011 02/00 A2997 RMK AO1 SLP165
SPECI CYNL 140832Z AUTO 11003KT SCT009 BKN023 02/00 A2997 RMK AO1 SLP166
METAR CYNL 140800Z AUTO 11003KT OVC021 02/00 A2997 RMK AO1 SLP168
METAR CYNL 140700Z AUTO 13006KT OVC019 02/M00 A2998 RMK AO1 SLP171
METAR CYNL 140600Z AUTO 17007KT OVC016 03/M00 A3000 RMK AO1 SLP176
METAR CYNL 140500Z AUTO 16007KT OVC016 03/M00 A3000 RMK AO1 SLP180
SPECI CYNL 140423Z AUTO 17008KT SCT012 OVC016 03/M00 A3000 RMK AO1 SLP182
METAR CYNL 140400Z AUTO 16008KT OVC011 03/M00 A3001 RMK AO1 SLP182
METAR CYNL 140300Z AUTO 16009KT OVC011 02/M00 A3002 RMK AO1 SLP189
SPECI CYNL 140215Z AUTO 15006KT BKN013 BKN150 02/M00 A3002 RMK AO1 SLP192
METAR CYNL 140200Z AUTO 15009KT BKN150 02/M00 A3002 RMK AO1 SLP193
METAR CYNL 140100Z AUTO 15010KT CLR 02/M01 A3003 RMK AO1 SLP197
METAR CYNL 140000Z AUTO 13008KT CLR 03/M01 A3003 RMK AO1 SLP196
METAR CYNL 132300Z AUTO 15009KT CLR 06/M03 A3003 RMK AO1 SLP193
METAR CYNL 132200Z AUTO 16009KT CLR 07/M02 A3004 RMK AO1 SLP194
METAR CYNL 132100Z AUTO 16010KT CLR 07/M02 A3005 RMK AO1 PRESFR SLP199
METAR CYNL 132000Z AUTO 16012KT CLR 07/M03 A3008 RMK AO1 SLP207
METAR CYNL 131900Z AUTO 17011G17KT CLR 06/M03 A3009 RMK AO1 SLP213
METAR CYNL 131800Z AUTO 17009KT CLR 05/M02 A3009 RMK AO1 SLP214
METAR CYNL 131700Z AUTO 18007KT CLR 04/M02 A3010 RMK AO1 SLP217
METAR CYNL 131600Z AUTO 18011KT CLR 02/M02 A3011 RMK AO1 SLP222
METAR CYNL 131500Z AUTO 19007KT CLR 01/M02 A3011 RMK AO1 SLP224
METAR CYNL 131400Z AUTO 18005KT CLR M01/M02 A3011 RMK AO1 SLP225
METAR CYNL 131300Z AUTO 16006KT CLR M01/M03 A3011 RMK AO1 SLP226
METAR CYNL 131200Z AUTO 18004KT CLR M01/M03 A3010 RMK AO1 SLP224
METAR CYNL 131100Z AUTO 17003KT CLR M02/M03 A3010 RMK AO1 SLP219
METAR CYNL 131000Z AUTO 18003KT CLR M02/M04 A3010 RMK AO1 SLP218
METAR CYNL 130900Z AUTO 19005KT CLR M01/M04 A3010 RMK AO1 SLP216
METAR CYNL 130800Z AUTO 20005KT CLR M01/M04 A3010 RMK AO1 SLP215
METAR CYNL 130700Z AUTO 19006KT CLR M00/M04 A3010 RMK AO1 SLP215
METAR CYNL 130600Z AUTO 19006KT CLR 00/M04 A3010 RMK AO1 SLP217
METAR CYNL 130500Z AUTO 19006KT CLR 00/M04 A3010 RMK AO1 SLP216
METAR CYNL 130400Z AUTO 19004KT CLR 01/M04 A3009 RMK AO1 SLP215
METAR CYNL 130300Z AUTO 17006KT CLR 01/M05 A3009 RMK AO1 SLP216
METAR CYNL 130200Z AUTO 16002KT CLR 00/M05 A3009 RMK AO1 SLP217
METAR CYNL 130100Z AUTO 00000KT CLR 00/M06 A3009 RMK AO1 SLP219
METAR CYNL 130000Z AUTO 17003KT CLR 03/M04 A3008 RMK AO1 SLP212
METAR CYNL 122300Z AUTO 23003KT CLR 05/M05 A3008 RMK AO1 SLP210
METAR CYNL 122200Z AUTO 19005KT CLR 06/M04 A3008 RMK AO1 SLP209
METAR CYNL 122100Z AUTO 23004KT FEW041 06/M05 A3009 RMK AO1 SLP213
METAR CYNL 122000Z AUTO 29004KT 250V330 CLR 05/M05 A3009 RMK AO1 SLP213
METAR CYNL 121900Z AUTO 29006KT 250V320 CLR 04/M05 A3010 RMK AO1 SLP217
METAR CYNL 121800Z AUTO 30005KT CLR 04/M05 A3010 RMK AO1 SLP216
METAR CYNL 121700Z AUTO 30007KT CLR 03/M06 A3009 RMK AO1 SLP214
METAR CYNL 121600Z AUTO 31006KT CLR 02/M05 A3009 RMK AO1 SLP214
METAR CYNL 121500Z AUTO 31005KT CLR 00/M04 A3008 RMK AO1 SLP213
METAR CYNL 121400Z AUTO 29005KT CLR M02/M05 A3008 RMK AO1 SLP214
METAR CYNL 121300Z AUTO 29007KT CLR M02/M04 A3007 RMK AO1 PRESRR SLP211
METAR CYNL 121200Z AUTO 31006KT CLR M01/M04 A3005 RMK AO1 SLP201
METAR CYNL 121100Z AUTO 32004KT CLR M01/M04 A3004 RMK AO1 SLP199
METAR CYNL 121000Z AUTO 31006KT CLR M01/M03 A3003 RMK AO1 SLP196
METAR CYNL 120900Z AUTO 32006KT CLR 00/M02 A3003 RMK AO1 SLP193
SPECI CYNL 120815Z AUTO 33008KT SCT019 01/M02 A3001 RMK AO1 SLP187
METAR CYNL 120800Z AUTO 33006G16KT BKN017 01/M02 A3001 RMK AO1 SLP185
SPECI CYNL 120759Z AUTO 33006G16KT BKN017 01/M02 A3001 RMK AO1 SLP185
SPECI CYNL 120740Z AUTO 34007G17KT SCT016 01/M02 A3000 RMK AO1 SLP183
SPECI CYNL 120734Z AUTO 34011G17KT BKN016 01/M02 A3000 RMK AO1 SLP183
SPECI CYNL 120733Z AUTO 34011G17KT SCT016 01/M02 A3000 RMK AO1 SLP183
SPECI CYNL 120725Z AUTO 33007KT FEW010 BKN015 01/M01 A3000 RMK AO1 SLP182
SPECI CYNL 120721Z AUTO 33007KT VV014 01/M01 A3000 RMK AO1 SLP182
SPECI CYNL 120719Z AUTO 32007KT FEW009 BKN016 01/M01 A3000 RMK AO1 SLP182
SPECI CYNL 120712Z AUTO 32007KT SCT016 BKN019 01/M02 A2999 RMK AO1 SLP181
METAR CYNL 120700Z AUTO 32005G15KT SCT018 01/M01 A2999 RMK AO1 SLP180
SPECI CYNL 120638Z AUTO 32006KT SCT024 01/M01 A2998 RMK AO1 PRESRR SLP177
SPECI CYNL 120636Z AUTO 32007KT BKN024 01/M01 A2998 RMK AO1 PRESRR SLP177
SPECI CYNL 120624Z AUTO 32007KT BKN025 01/M01 A2999 RMK AO1 PRESRR SLP178
SPECI CYNL 120617Z AUTO 32006KT FEW010 BKN024 01/M01 A2999 RMK AO1 PRESRR SLP178
SPECI CYNL 120601Z AUTO 32008KT SCT010 BKN029 01/M00 A2998 RMK AO1 PRESRR SLP177
METAR CYNL 120600Z AUTO 32007KT SCT010 BKN022 01/M00 A2998 RMK AO1 PRESRR SLP177
SPECI CYNL 120557Z AUTO 33007KT SCT010 BKN015 01/M00 A2998 RMK AO1 SLP177
SPECI CYNL 120538Z AUTO 32007KT FEW009 BKN014 02/M00 A2998 RMK AO1 SLP174
SPECI CYNL 120536Z AUTO 32006KT BKN013 02/00 A2998 RMK AO1 SLP174
SPECI CYNL 120535Z AUTO 33006KT SCT014 02/M00 A2998 RMK AO1 SLP174
SPECI CYNL 120534Z AUTO 32007KT BKN014 02/M00 A2998 RMK AO1 SLP174
SPECI CYNL 120533Z AUTO 31007KT SCT014 02/M00 A2997 RMK AO1 SLP174
SPECI CYNL 120531Z AUTO 31006KT SCT014 BKN016 02/M00 A2997 RMK AO1 SLP174
SPECI CYNL 120506Z AUTO 33008G15KT SCT024 02/M01 A2996 RMK AO1 SLP169
METAR CYNL 120500Z AUTO 32010KT BKN025 02/M01 A2996 RMK AO1 SLP169
SPECI CYNL 120424Z AUTO 34009KT BKN026 02/M02 A2995 RMK AO1 SLP166
METAR CYNL 120400Z AUTO 33007KT CLR 02/M02 A2995 RMK AO1 SLP166
METAR CYNL 120300Z AUTO 32008G16KT FEW100 02/M02 A2994 RMK AO1 PRESRR SLP161
METAR CYNL 120200Z AUTO 32008G15KT CLR 02/M02 A2991 RMK AO1 PRESRR SLP151
METAR CYNL 120100Z AUTO 33010G18KT FEW130 03/M02 A2988 RMK AO1 SLP142
METAR CYNL 120000Z AUTO 33008G17KT FEW043 03/M01 A2988 RMK AO1 SLP139
METAR CYNL 112300Z AUTO 33010G18KT BKN038 03/M01 A2986 RMK AO1 SLP132
SPECI CYNL 112208Z AUTO 33010G16KT SCT013 BKN033 03/M00 A2984 RMK AO1 SLP126
SPECI CYNL 112203Z AUTO 32009KT BKN013 03/M00 A2984 RMK AO1 SLP126
SPECI CYNL 112202Z AUTO 33009KT SCT012 BKN015 03/M00 A2984 RMK AO1 SLP126
METAR CYNL 112200Z AUTO 32010KT BKN012 03/M00 A2984 RMK AO1 SLP126
SPECI CYNL 112112Z AUTO 33010G15KT BKN011 03/00 A2983 RMK AO1 SLP122
SPECI CYNL 112111Z AUTO 33010G16KT SCT011 BKN050 03/00 A2983 RMK AO1 SLP122
SPECI CYNL 112110Z AUTO 33010G16KT SCT011 BKN015 03/00 A2983 RMK AO1 SLP122
METAR CYNL 112100Z AUTO 33009KT BKN011 02/00 A2983 RMK AO1 SLP121
SPECI CYNL 112003Z AUTO 32008G17KT BKN010 02/00 A2982 RMK AO1 SLP117
METAR CYNL 112000Z AUTO 33012G17KT SCT010 BKN036 02/00 A2982 RMK AO1 SLP117
SPECI CYNL 111927Z AUTO 33010G16KT SCT010 BKN035 BKN046 02/01 A2981 RMK AO1 SLP113
SPECI CYNL 111923Z AUTO 32010G16KT BKN010 BKN048 02/01 A2981 RMK AO1 SLP113
METAR CYNL 111900Z AUTO 34008G17KT FEW011 BKN054 03/01 A2980 RMK AO1 SLP111
SPECI CYNL 111832Z AUTO 33010G19KT SCT009 BKN035 03/01 A2979 RMK AO1 SLP106
SPECI CYNL 111823Z AUTO 33011G18KT BKN008 03/01 A2979 RMK AO1 SLP106
SPECI CYNL 111822Z AUTO 33011G18KT SCT008 BKN010 03/01 A2979 RMK AO1 SLP106
SPECI CYNL 111821Z AUTO 33012G18KT SCT008 BKN041 03/01 A2979 RMK AO1 SLP105
SPECI CYNL 111819Z AUTO 33011G18KT SCT008 BKN010 03/01 A2979 RMK AO1 SLP105
SPECI CYNL 111805Z AUTO 33009G17KT BKN008 BKN052 03/01 A2978 RMK AO1 SLP104
SPECI CYNL 111804Z AUTO 33009G16KT SCT008 BKN010 03/01 A2978 RMK AO1 SLP104
METAR CYNL 111800Z AUTO 33010G16KT BKN009 03/01 A2979 RMK AO1 SLP105
SPECI CYNL 111752Z AUTO 34011G19KT SCT009 BKN035 03/01 A2979 RMK AO1 SLP105
SPECI CYNL 111742Z AUTO 33012G18KT BKN009 BKN035 03/01 A2979 RMK AO1 SLP105
SPECI CYNL 111722Z AUTO 34012KT OVC010 03/02 A2979 RMK AO1 SLP104
METAR CYNL 111700Z AUTO 34009G15KT BKN008 OVC010 03/02 A2978 RMK AO1 SLP104
SPECI CYNL 111637Z AUTO 34010G20KT BKN007 02/02 A2978 RMK AO1 SLP101
METAR CYNL 111600Z AUTO 34011G17KT FEW006 BKN047 02/02 A2977 RMK AO1 SLP101
SPECI CYNL 111513Z AUTO 33008KT FEW006 SCT017 BKN240 02/02 A2977 RMK AO1 SLP101
SPECI CYNL 111503Z AUTO 32007KT SCT007 BKN018 02/02 A2977 RMK AO1 SLP101
METAR CYNL 111500Z AUTO 32007KT VV016 02/02 A2977 RMK AO1 SLP101
SPECI CYNL 111445Z AUTO 32008KT VV010 02/02 A2977 RMK AO1 SLP099
SPECI CYNL 111442Z AUTO 32007KT VV009 02/02 A2977 RMK AO1 SLP099
SPECI CYNL 111437Z AUTO 32007KT VV012 02/02 A2977 RMK AO1 SLP099
METAR CYNL 111400Z AUTO 33006KT FEW007 SCT038 03/02 A2977 RMK AO1 SLP097
SPECI CYNL 111328Z AUTO 32004KT FEW007 BKN042 03/02 A2976 RMK AO1 SLP095
METAR CYNL 111300Z AUTO 35004KT FEW044 03/03 A2976 RMK AO1 SLP093
SPECI CYNL 111217Z AUTO 02005KT FEW008 04/03 A2975 RMK AO1 PRESRR SLP088
METAR CYNL 111200Z AUTO 35006KT FEW066 04/03 A2974 RMK AO1 PRESRR SLP086
METAR CYNL 111100Z AUTO 34006KT SCT072 04/03 A2972 RMK AO1 SLP078
METAR CYNL 111000Z AUTO 34007KT SCT070 05/03 A2971 RMK AO1 SLP073
METAR CYNL 110900Z AUTO 34005KT SCT068 05/03 A2970 RMK AO1 SLP069
METAR CYNL 110800Z AUTO 34006KT CLR 05/03 A2970 RMK AO1 SLP067
METAR CYNL 110700Z AUTO 35007KT CLR 06/03 A2969 RMK AO1 SLP064
METAR CYNL 110600Z AUTO 35005KT FEW068 06/03 A2969 RMK AO1 SLP062
METAR CYNL 110500Z AUTO 35004KT BKN066 06/03 A2968 RMK AO1 SLP061
METAR CYNL 110400Z AUTO 33004KT SCT066 06/02 A2968 RMK AO1 SLP060
METAR CYNL 110300Z AUTO 34004KT FEW070 06/03 A2967 RMK AO1 SLP058
METAR CYNL 110200Z AUTO 33005KT FEW072 BKN090 06/03 A2966 RMK AO1 SLP056
METAR CYNL 110100Z AUTO 33006KT SCT074 07/03 A2965 RMK AO1 SLP053
METAR CYNL 110000Z AUTO 33004KT BKN070 08/02 A2963 RMK AO1 SLP047
METAR CYNL 102300Z AUTO 31003KT FEW076 10/02 A2961 RMK AO1 SLP040
METAR CYNL 102200Z AUTO 00000KT CLR 11/01 A2960 RMK AO1 SLP034
METAR CYNL 102100Z AUTO 00000KT SCT066 10/01 A2960 RMK AO1 SLP034
METAR CYNL 102000Z AUTO 32002KT CLR 10/01 A2959 RMK AO1 SLP029
METAR CYNL 101900Z AUTO 28003KT CLR 10/02 A2958 RMK AO1 SLP027
METAR CYNL 101800Z AUTO 26004KT CLR 10/02 A2959 RMK AO1 SLP028
METAR CYNL 101700Z AUTO 23004KT CLR 09/03 A2958 RMK AO1 SLP027
METAR CYNL 101600Z AUTO 22007KT CLR 09/01 A2958 RMK AO1 SLP025
METAR CYNL 101500Z AUTO 24006KT CLR 06/M00 A2958 RMK AO1 SLP027
METAR CYNL 101400Z AUTO 23004KT CLR 04/M01 A2957 RMK AO1 SLP023
METAR CYNL 101300Z AUTO 25003KT CLR 04/M02 A2956 RMK AO1 SLP022
METAR CYNL 101200Z AUTO 25003KT CLR 03/M03 A2956 RMK AO1 SLP020
METAR CYNL 101100Z AUTO 22004KT CLR 04/M03 A2955 RMK AO1 SLP018
METAR CYNL 101000Z AUTO 21004KT CLR 05/M02 A2955 RMK AO1 SLP016
METAR CYNL 100900Z AUTO 23005KT CLR 06/M04 A2955 RMK AO1 SLP011
METAR CYNL 100800Z AUTO 22005KT CLR 06/M04 A2954 RMK AO1 SLP008
METAR CYNL 100700Z AUTO 22007KT CLR 07/M03 A2954 RMK AO1 SLP011
METAR CYNL 100600Z AUTO 22007KT CLR 07/M04 A2954 RMK AO1 SLP009
METAR CYNL 100500Z AUTO 22007KT SCT090 08/M04 A2954 RMK AO1 SLP009
METAR CYNL 100400Z AUTO 21008KT FEW100 09/M03 A2954 RMK AO1 SLP010
METAR CYNL 100300Z AUTO 20007KT BKN088 09/M03 A2955 RMK AO1 SLP014
METAR CYNL 100200Z AUTO 19008KT BKN080 10/M03 A2956 RMK AO1 SLP021
METAR CYNL 100100Z AUTO 19009KT BKN094 10/M04 A2956 RMK AO1 SLP023
METAR CYNL 100000Z AUTO 19008KT CLR 11/M04 A2957 RMK AO1 SLP026
METAR CYNL 092300Z AUTO 20012G18KT FEW130 12/M05 A2958 RMK AO1 SLP029
METAR CYNL 092200Z AUTO 20009G17KT CLR 13/M05 A2959 RMK AO1 SLP032
METAR CYNL 092100Z AUTO 20013KT CLR 12/M03 A2960 RMK AO1 PRESFR SLP035
METAR CYNL 092000Z AUTO 21009G17KT CLR 12/M02 A2962 RMK AO1 SLP041
METAR CYNL 091900Z AUTO 20013KT CLR 13/M03 A2963 RMK AO1 PRESFR SLP042
METAR CYNL 091800Z AUTO 20012KT CLR 12/M02 A2965 RMK AO1 SLP051
METAR CYNL 091700Z AUTO 20011KT CLR 10/M01 A2967 RMK AO1 PRESFR SLP059
METAR CYNL 091600Z AUTO 19008KT CLR 08/01 A2970 RMK AO1 SLP068
METAR CYNL 091500Z AUTO 20006KT CLR 05/01 A2971 RMK AO1 SLP073
METAR CYNL 091400Z AUTO 21005KT CLR 03/00 A2971 RMK AO1 SLP076
METAR CYNL 091300Z AUTO 21005KT CLR 02/M00 A2972 RMK AO1 SLP080
METAR CYNL 091200Z AUTO 20004KT CLR 02/M00 A2973 RMK AO1 SLP083
METAR CYNL 091100Z AUTO 21005KT CLR 02/M00 A2974 RMK AO1 PRESFR SLP083
METAR CYNL 091000Z AUTO 21004KT CLR 03/M00 A2976 RMK AO1 SLP089
METAR CYNL 090900Z AUTO 21005KT CLR 03/M00 A2977 RMK AO1 SLP092
METAR CYNL 090800Z AUTO 20005KT CLR 04/00 A2979 RMK AO1 SLP095
METAR CYNL 090700Z AUTO 21006KT BKN092 04/00 A2979 RMK AO1 SLP098
METAR CYNL 090600Z AUTO 20007KT CLR 05/00 A2981 RMK AO1 SLP102
METAR CYNL 090500Z AUTO 21005KT CLR 06/00 A2980 RMK AO1 SLP102
METAR CYNL 090400Z AUTO 21006KT CLR 07/01 A2981 RMK AO1 SLP106
METAR CYNL 090300Z AUTO 21005KT CLR 08/01 A2982 RMK AO1 SLP108
METAR CYNL 090200Z AUTO 20007KT CLR 08/00 A2981 RMK AO1 SLP107
METAR CYNL 090100Z AUTO 19006KT CLR 09/00 A2982 RMK AO1 SLP112
METAR CYNL 090000Z AUTO 21007KT CLR 11/M00 A2983 RMK AO1 SLP115
METAR CYNL 082300Z AUTO 22008G16KT CLR 12/M01 A2984 RMK AO1 SLP117
METAR CYNL 082200Z AUTO 22007G18KT CLR 13/M03 A2984 RMK AO1 SLP118
METAR CYNL 082100Z AUTO 22011G20KT CLR 13/M03 A2985 RMK AO1 PRESFR SLP121
METAR CYNL 082000Z AUTO 22008G18KT CLR 13/M02 A2987 RMK AO1 SLP128
METAR CYNL 081900Z AUTO 21012G19KT CLR 12/M01 A2988 RMK AO1 SLP133
METAR CYNL 081800Z AUTO 22007G16KT CLR 11/00 A2990 RMK AO1 SLP139
METAR CYNL 081700Z AUTO 21008G15KT CLR 09/00 A2991 RMK AO1 SLP145
METAR CYNL 081600Z AUTO 24007KT CLR 08/01 A2992 RMK AO1 SLP148
METAR CYNL 081500Z AUTO 21009KT CLR 05/00 A2991 RMK AO1 SLP149
METAR CYNL 081400Z AUTO 21005KT CLR 02/M00 A2992 RMK AO1 SLP154
METAR CYNL 081300Z AUTO 21005KT CLR 01/M01 A2992 RMK AO1 SLP156
METAR CYNL 081200Z AUTO 21004KT CLR 01/M02 A2992 RMK AO1 SLP153
METAR CYNL 081100Z AUTO 21006KT CLR 01/M02 A2992 RMK AO1 SLP153
METAR CYNL 081000Z AUTO 21006KT CLR 02/M02 A2992 RMK AO1 SLP151
METAR CYNL 080900Z AUTO 21006KT CLR 02/M02 A2991 RMK AO1 SLP150
METAR CYNL 080800Z AUTO 21006KT CLR 02/M02 A2991 RMK AO1 SLP149
METAR CYNL 080700Z AUTO 22007KT CLR 02/M02 A2991 RMK AO1 SLP148
METAR CYNL 080600Z AUTO 21006KT CLR 02/M03 A2991 RMK AO1 SLP150
METAR CYNL 080500Z AUTO 20005KT CLR 02/M02 A2991 RMK AO1 SLP150
METAR CYNL 080400Z AUTO 20006KT CLR 03/M02 A2991 RMK AO1 SLP148
METAR CYNL 080300Z AUTO 22004KT CLR 03/M03 A2991 RMK AO1 SLP146
METAR CYNL 080200Z AUTO 23005KT CLR 04/M03 A2990 RMK AO1 SLP142
METAR CYNL 080100Z AUTO 25009KT FEW044 05/M03 A2990 RMK AO1 SLP139
METAR CYNL 080000Z AUTO 24010KT OVC037 06/M03 A2988 RMK AO1 PRESRR SLP135
METAR CYNL 072300Z AUTO 25011G20KT OVC040 06/M03 A2987 RMK AO1 SLP129
METAR CYNL 072200Z AUTO 25010G17KT BKN042 06/M03 A2985 RMK AO1 SLP123
METAR CYNL 072100Z AUTO 25010G18KT BKN034 05/M02 A2985 RMK AO1 SLP122
METAR CYNL 072000Z AUTO 27012G18KT OVC033 05/M02 A2983 RMK AO1 SLP118
SPECI CYNL 071926Z AUTO 26010G22KT OVC030 06/M02 A2983 RMK AO1 SLP116
METAR CYNL 071900Z AUTO 27011G22KT OVC026 05/M02 A2983 RMK AO1 SLP116
SPECI CYNL 071850Z AUTO 26013G20KT OVC025 05/M02 A2983 RMK AO1 SLP116
SPECI CYNL 071804Z AUTO 26012G17KT SCT014 OVC020 04/M00 A2982 RMK AO1 SLP112
METAR CYNL 071800Z AUTO 26009G17KT BKN014 OVC022 04/M00 A2982 RMK AO1 SLP113
METAR CYNL 071700Z AUTO 27010G20KT OVC014 05/01 A2980 RMK AO1 SLP107
METAR CYNL 071600Z AUTO 27011G17KT BKN012 OVC014 05/02 A2979 RMK AO1 SLP101
SPECI CYNL 071524Z AUTO 28009G17KT BKN012 OVC028 05/02 A2978 RMK AO1 SLP097
SPECI CYNL 071512Z AUTO 27009KT SCT010 BKN022 OVC028 05/03 A2978 RMK AO1 SLP097
METAR CYNL 071500Z AUTO 28009G16KT FEW008 BKN010 OVC019 05/03 A2978 RMK AO1 SLP096
SPECI CYNL 071444Z AUTO 29008G16KT SCT007 OVC010 05/03 A2977 RMK AO1 SLP095
METAR CYNL 071400Z AUTO 28008KT BKN007 OVC009 06/05 A2976 RMK AO1 SLP089
SPECI CYNL 071346Z AUTO 29008KT BKN008 BKN066 06/04 A2975 RMK AO1 SLP087
SPECI CYNL 071334Z AUTO 28007KT FEW009 SCT037 BKN066 06/04 A2975 RMK AO1 SLP085
METAR CYNL 071300Z AUTO 26005KT OVC045 06/04 A2974 RMK AO1 SLP082
METAR CYNL 071200Z AUTO 26002KT FEW030 05/04 A2974 RMK AO1 SLP083
METAR CYNL 071100Z AUTO 00000KT CLR 06/04 A2974 RMK AO1 SLP080
METAR CYNL 071000Z AUTO 12003KT CLR 06/03 A2975 RMK AO1 SLP084
METAR CYNL 070900Z AUTO 11003KT CLR 07/03 A2976 RMK AO1 SLP087
METAR CYNL 070800Z AUTO 10004KT CLR 07/03 A2977 RMK AO1 SLP088
METAR CYNL 070700Z AUTO 11005KT CLR 07/02 A2978 RMK AO1 SLP093
METAR CYNL 070600Z AUTO 10007KT FEW130 07/02 A2979 RMK AO1 PRESFR SLP098
METAR CYNL 070500Z AUTO 13006KT 100V160 CLR 07/02 A2984 RMK AO1 SLP113
METAR CYNL 070400Z AUTO 12008KT CLR 08/02 A2984 RMK AO1 SLP115
METAR CYNL 070300Z AUTO 12008KT FEW140 08/02 A2986 RMK AO1 SLP121
METAR CYNL 070200Z AUTO 11007KT CLR 08/01 A2988 RMK AO1 SLP128
METAR CYNL 070100Z AUTO 11010G16KT CLR 09/01 A2989 RMK AO1 SLP132
METAR CYNL 070000Z AUTO 11010KT FEW120 10/00 A2989 RMK AO1 SLP135
METAR CYNL 062300Z AUTO 12011G18KT CLR 10/M01 A2990 RMK AO1 SLP136
METAR CYNL 062200Z AUTO 12014G20KT CLR 11/M01 A2990 RMK AO1 PRESFR SLP138
METAR CYNL 062100Z AUTO 10010G19KT CLR 11/M01 A2993 RMK AO1 SLP146
METAR CYNL 062000Z AUTO 11012G19KT CLR 11/M02 A2994 RMK AO1 PRESFR SLP149
METAR CYNL 061900Z AUTO 10014G20KT CLR 10/M02 A2996 RMK AO1 SLP156
METAR CYNL 061800Z AUTO 10015G23KT CLR 10/M02 A2997 RMK AO1 SLP160
METAR CYNL 061700Z AUTO 10012G24KT CLR 09/M02 A2999 RMK AO1 PRESFR SLP168
METAR CYNL 061600Z AUTO 09010G18KT CLR 09/M01 A3002 RMK AO1 SLP179
METAR CYNL 061500Z AUTO 10012KT CLR 07/M01 A3004 RMK AO1 SLP186
METAR CYNL 061400Z AUTO 10006KT CLR 05/M00 A3003 RMK AO1 PRESFR SLP185
METAR CYNL 061300Z AUTO 07005KT CLR 04/M01 A3005 RMK AO1 SLP194
METAR CYNL 061200Z AUTO 07006KT FEW180 04/M00 A3005 RMK AO1 SLP194
METAR CYNL 061100Z AUTO 07006KT CLR 04/M01 A3006 RMK AO1 SLP197
METAR CYNL 061000Z AUTO 06007KT SCT072 05/M01 A3008 RMK AO1 SLP199
METAR CYNL 060900Z AUTO 07006KT OVC070 06/M01 A3009 RMK AO1 SLP201
METAR CYNL 060800Z AUTO 05006KT BKN072 06/M01 A3008 RMK AO1 SLP197
METAR CYNL 060700Z AUTO 06007KT BKN068 06/M01 A3008 RMK AO1 SLP198
METAR CYNL 060600Z AUTO 06006KT BKN072 BKN092 06/M02 A3010 RMK AO1 SLP203
METAR CYNL 060500Z AUTO 06006KT BKN092 05/M01 A3010 RMK AO1 SLP208
METAR CYNL 060400Z AUTO 07005KT FEW094 05/M01 A3011 RMK AO1 SLP212
METAR CYNL 060300Z AUTO 08005KT SCT098 06/M02 A3013 RMK AO1 SLP217
METAR CYNL 060200Z AUTO 08004KT BKN096 06/M02 A3013 RMK AO1 SLP222
METAR CYNL 060100Z AUTO 08004KT SCT100 06/M02 A3013 RMK AO1 SLP223
METAR CYNL 060000Z AUTO 07004KT FEW096 07/M02 A3012 RMK AO1 SLP220
METAR CYNL 052300Z AUTO 05004KT CLR 08/M05 A3012 RMK AO1 SLP218
METAR CYNL 052200Z AUTO 06004KT CLR 09/M07 A3013 RMK AO1 SLP220
METAR CYNL 052100Z AUTO 33004KT CLR 09/M06 A3014 RMK AO1 SLP223
METAR CYNL 052000Z AUTO 00005KT 330V030 CLR 09/M07 A3015 RMK AO1 SLP225
METAR CYNL 051900Z AUTO VRB03KT CLR 10/M05 A3015 RMK AO1 SLP224
METAR CYNL 051800Z AUTO 00000KT FEW130 08/M05 A3016 RMK AO1 SLP230
METAR CYNL 051700Z AUTO 32003KT FEW130 07/M04 A3015 RMK AO1 SLP228
METAR CYNL 051600Z AUTO 26004KT FEW140 07/M03 A3015 RMK AO1 SLP229
METAR CYNL 051500Z AUTO 24004KT CLR 04/M01 A3015 RMK AO1 SLP230
METAR CYNL 051400Z AUTO 24004KT CLR 01/M02 A3014 RMK AO1 SLP229
METAR CYNL 051300Z AUTO 25004KT FEW140 00/M02 A3013 RMK AO1 SLP226
METAR CYNL 051200Z AUTO 22004KT CLR 00/M03 A3011 RMK AO1 SLP218
METAR CYNL 051100Z AUTO 22006KT CLR 01/M03 A3010 RMK AO1 SLP211
METAR CYNL 051000Z AUTO 23003KT CLR 01/M04 A3009 RMK AO1 SLP204
METAR CYNL 050900Z AUTO 24004KT CLR 01/M04 A3008 RMK AO1 SLP202
METAR CYNL 050800Z AUTO 26006KT CLR 03/M05 A3008 RMK AO1 SLP199
METAR CYNL 050700Z AUTO 25005KT CLR 02/M05 A3006 RMK AO1 SLP195
METAR CYNL 050600Z AUTO 25007KT CLR 03/M05 A3005 RMK AO1 PRESRR SLP189
METAR CYNL 050500Z AUTO 23006KT CLR 02/M05 A3002 RMK AO1 PRESRR SLP184
METAR CYNL 050400Z AUTO 25004KT CLR 03/M05 A3000 RMK AO1 SLP176
METAR CYNL 050300Z AUTO 26007KT CLR 05/M07 A2999 RMK AO1 PRESRR SLP170
METAR CYNL 050200Z AUTO 25005KT CLR 05/M06 A2996 RMK AO1 SLP163
METAR CYNL 050100Z AUTO 25006KT CLR 07/M07 A2995 RMK AO1 SLP156
METAR CYNL 050000Z AUTO 25011G20KT CLR 09/M09 A2993 RMK AO1 SLP149
METAR CYNL 042300Z AUTO 25013G18KT CLR 10/M08 A2992 RMK AO1 SLP143
METAR CYNL 042200Z AUTO 24013G25KT CLR 11/M08 A2991 RMK AO1 SLP141
METAR CYNL 042100Z AUTO 26014G24KT CLR 11/M09 A2991 RMK AO1 SLP139
METAR CYNL 042000Z AUTO 25012G27KT CLR 10/M08 A2990 RMK AO1 SLP136
METAR CYNL 041900Z AUTO 26019G25KT CLR 10/M08 A2989 RMK AO1 SLP133
METAR CYNL 041800Z AUTO 26015G24KT CLR 09/M06 A2989 RMK AO1 SLP133
METAR CYNL 041700Z AUTO 24011G22KT CLR 07/M05 A2989 RMK AO1 SLP132
METAR CYNL 041600Z AUTO 25009G19KT CLR 07/M04 A2988 RMK AO1 SLP130
METAR CYNL 041500Z AUTO 24011G17KT CLR 06/M03 A2986 RMK AO1 SLP124
METAR CYNL 041400Z AUTO 23010KT CLR 05/M02 A2985 RMK AO1 SLP119
METAR CYNL 041300Z AUTO 24009G16KT CLR 04/M02 A2983 RMK AO1 SLP113
METAR CYNL 041200Z AUTO 23011G16KT CLR 04/M03 A2981 RMK AO1 SLP107
METAR CYNL 041100Z AUTO 24012KT CLR 05/M04 A2980 RMK AO1 SLP103
METAR CYNL 041000Z AUTO 25010G16KT CLR 05/M04 A2980 RMK AO1 SLP100
METAR CYNL 040900Z AUTO 25013G22KT CLR 05/M04 A2978 RMK AO1 SLP093
METAR CYNL 040800Z AUTO 25013G19KT CLR 06/M03 A2977 RMK AO1 SLP088
METAR CYNL 040700Z AUTO 25010G19KT CLR 06/M01 A2975 RMK AO1 SLP079
METAR CYNL 040600Z AUTO 24011G18KT CLR 07/00 A2974 RMK AO1 SLP076
METAR CYNL 040500Z AUTO 25010G18KT FEW130 08/M01 A2973 RMK AO1 SLP074
METAR CYNL 040400Z AUTO 25010G23KT FEW052 07/M00 A2975 RMK AO1 PRESRR SLP079
METAR CYNL 040300Z AUTO 22007KT SCT074 BKN092 10/M01 A2973 RMK AO1 SLP070
METAR CYNL 040200Z AUTO 21006KT SCT080 10/M01 A2972 RMK AO1 SLP071
METAR CYNL 040100Z AUTO 21005KT BKN088 10/M01 A2973 RMK AO1 SLP076
METAR CYNL 040000Z AUTO 21005KT BKN100 11/M01 A2972 RMK AO1 SLP072
METAR CYNL 032300Z AUTO 23006KT CLR 11/M02 A2972 RMK AO1 SLP069
METAR CYNL 032200Z AUTO 24006KT CLR 12/M03 A2972 RMK AO1 SLP067
METAR CYNL 032100Z AUTO 24012KT CLR 13/M04 A2972 RMK AO1 SLP066
METAR CYNL 032000Z AUTO 21010G16KT CLR 15/M04 A2971 RMK AO1 SLP062
METAR CYNL 031900Z AUTO 22007KT CLR 15/M00 A2972 RMK AO1 SLP066
METAR CYNL 031800Z AUTO 22005KT CLR 14/01 A2972 RMK AO1 SLP067
METAR CYNL 031700Z AUTO 23003KT CLR 12/02 A2973 RMK AO1 SLP070
METAR CYNL 031600Z AUTO 27006KT CLR 12/03 A2974 RMK AO1 SLP073
METAR CYNL 031500Z AUTO 26005KT CLR 10/03 A2972 RMK AO1 SLP070
METAR CYNL 031400Z AUTO 25004KT CLR 07/04 A2972 RMK AO1 SLP072
METAR CYNL 031300Z AUTO 20004KT CLR 08/03 A2971 RMK AO1 SLP067
METAR CYNL 031200Z AUTO 20006KT CLR 08/03 A2972 RMK AO1 SLP070
METAR CYNL 031100Z AUTO 18003KT CLR 09/04 A2972 RMK AO1 SLP069
METAR CYNL 031000Z AUTO 21006KT CLR 09/03 A2973 RMK AO1 SLP072
METAR CYNL 030900Z AUTO 20006KT SCT110 10/03 A2974 RMK AO1 SLP071
METAR CYNL 030800Z AUTO 18008KT CLR 10/03 A2975 RMK AO1 PRESFR SLP075
METAR CYNL 030700Z AUTO 17008KT CLR 10/03 A2977 RMK AO1 SLP082
METAR CYNL 030600Z AUTO 18008KT CLR 10/03 A2979 RMK AO1 PRESFR SLP089
METAR CYNL 030500Z AUTO 18006KT CLR 10/04 A2982 RMK AO1 SLP099
METAR CYNL 030400Z AUTO 17007KT CLR 11/03 A2983 RMK AO1 SLP106
METAR CYNL 030300Z AUTO 19006KT CLR 11/04 A2985 RMK AO1 SLP114
METAR CYNL 030200Z AUTO 17004KT CLR 11/04 A2987 RMK AO1 SLP122
METAR CYNL 030100Z AUTO 17005KT CLR 11/04 A2989 RMK AO1 SLP133
METAR CYNL 030000Z AUTO 17006KT CLR 12/04 A2990 RMK AO1 PRESFR SLP139
METAR CYNL 022300Z AUTO 19004KT CLR 13/04 A2993 RMK AO1 SLP147
METAR CYNL 022200Z AUTO 19006KT CLR 15/03 A2994 RMK AO1 PRESFR SLP149
METAR CYNL 022100Z AUTO 22005KT CLR 14/03 A2997 RMK AO1 PRESFR SLP159
METAR CYNL 022000Z AUTO 23007KT CLR 15/03 A2999 RMK AO1 PRESFR SLP165
METAR CYNL 021900Z AUTO 23005KT CLR 15/02 A3001 RMK AO1 PRESFR SLP172
METAR CYNL 021800Z AUTO 20006KT CLR 14/04 A3003 RMK AO1 SLP179
METAR CYNL 021700Z AUTO 20006KT CLR 12/04 A3005 RMK AO1 PRESFR SLP187
METAR CYNL 021600Z AUTO 19004KT CLR 10/05 A3008 RMK AO1 SLP195
METAR CYNL 021500Z AUTO 00000KT CLR 07/07 A3009 RMK AO1 SLP203
METAR CYNL 021400Z AUTO 24002KT CLR 03/03 A3010 RMK AO1 SLP210
METAR CYNL 021300Z AUTO 00000KT CLR 01/01 A3011 RMK AO1 SLP214
METAR CYNL 021200Z AUTO 26004KT CLR 01/01 A3012 RMK AO1 SLP215
METAR CYNL 021100Z AUTO 00000KT CLR 01/01 A3012 RMK AO1 SLP211
METAR CYNL 021000Z AUTO 20003KT CLR 02/02 A3012 RMK AO1 SLP211
METAR CYNL 020900Z AUTO 25005KT CLR 03/03 A3011 RMK AO1 SLP208
METAR CYNL 020800Z AUTO 23004KT CLR 03/03 A3011 RMK AO1 SLP207
METAR CYNL 020700Z AUTO 25005KT CLR 04/04 A3011 RMK AO1 SLP205
METAR CYNL 020600Z AUTO 25003KT CLR 05/05 A3010 RMK AO1 SLP201
METAR CYNL 020500Z AUTO 29005KT CLR 06/05 A3009 RMK AO1 SLP196
METAR CYNL 020400Z AUTO 27003KT CLR 07/06 A3007 RMK AO1 SLP192
METAR CYNL 020300Z AUTO 00000KT CLR 08/07 A3007 RMK AO1 SLP189
METAR CYNL 020200Z AUTO 00000KT CLR 08/07 A3006 RMK AO1 SLP186
METAR CYNL 020100Z AUTO 23003KT CLR 11/07 A3004 RMK AO1 SLP181
METAR CYNL 020000Z AUTO 24003KT CLR 14/07 A3003 RMK AO1 SLP175
METAR CYNL 012300Z AUTO 25002KT CLR 13/07 A3002 RMK AO1 SLP171
METAR CYNL 012200Z AUTO 21002KT FEW120 13/07 A3000 RMK AO1 SLP164
METAR CYNL 012100Z AUTO 24004KT FEW120 13/06 A2998 RMK AO1 SLP158
METAR CYNL 012000Z AUTO 26002KT CLR 14/05 A2996 RMK AO1 SLP151
METAR CYNL 011900Z AUTO VRB03KT CLR 14/06 A2995 RMK AO1 PRESRR SLP144
METAR CYNL 011800Z AUTO 00000KT CLR 13/05 A2992 RMK AO1 SLP135
METAR CYNL 011700Z AUTO 30003KT CLR 12/05 A2992 RMK AO1 SLP134
METAR CYNL 011600Z AUTO 23005KT CLR 13/06 A2992 RMK AO1 SLP132
METAR CYNL 011500Z AUTO 21008KT CLR 11/05 A2991 RMK AO1 PRESRR SLP130
METAR CYNL 011400Z AUTO 19004KT CLR 08/05 A2989 RMK AO1 SLP125
METAR CYNL 011300Z AUTO 16005KT CLR 07/05 A2988 RMK AO1 SLP125
METAR CYNL 011200Z AUTO 14004KT CLR 07/04 A2988 RMK AO1 SLP123
METAR CYNL 011100Z AUTO 14002KT CLR 08/04 A2988 RMK AO1 SLP123
METAR CYNL 011000Z AUTO 15003KT CLR 08/04 A2990 RMK AO1 SLP127
METAR CYNL 010900Z AUTO 00000KT CLR 08/04 A2991 RMK AO1 SLP130
METAR CYNL 010800Z AUTO 16004KT CLR 09/04 A2993 RMK AO1 SLP135
METAR CYNL 010700Z AUTO 18004KT CLR 10/04 A2993 RMK AO1 SLP135
METAR CYNL 010600Z AUTO 17004KT CLR 11/04 A2994 RMK AO1 SLP140
METAR CYNL 010500Z AUTO 17009KT CLR 12/04 A2995 RMK AO1 SLP143
METAR CYNL 010400Z AUTO 17010G17KT CLR 12/04 A2995 RMK AO1 SLP145
METAR CYNL 010300Z AUTO 16012KT CLR 13/04 A2997 RMK AO1 SLP150
METAR CYNL 010200Z AUTO 17011G16KT CLR 13/05 A2997 RMK AO1 SLP151
METAR CYNL 010100Z AUTO 16010KT CLR 14/04 A2996 RMK AO1 SLP152
METAR CYNL 010000Z AUTO 16011G20KT CLR 15/05 A2996 RMK AO1 SLP157
METAR CYNL 302300Z AUTO 16012KT CLR 16/05 A2997 RMK AO1 SLP158
METAR CYNL 302200Z AUTO 17009G20KT CLR 16/05 A2998 RMK AO1 SLP159
METAR CYNL 302100Z AUTO 15010G18KT CLR 16/05 A2999 RMK AO1 SLP164
METAR CYNL 302000Z AUTO 18016G21KT CLR 17/04 A3001 RMK AO1 SLP167
METAR CYNL 301900Z AUTO 17014KT CLR 16/05 A3002 RMK AO1 SLP171
METAR CYNL 301800Z AUTO 18008KT CLR 14/06 A3003 RMK AO1 SLP178
METAR CYNL 301700Z AUTO 19009KT CLR 13/06 A3004 RMK AO1 SLP181
METAR CYNL 301600Z AUTO 16008KT CLR 11/06 A3005 RMK AO1 SLP184
METAR CYNL 301500Z AUTO 17007KT CLR 09/05 A3005 RMK AO1 SLP187
METAR CYNL 301400Z AUTO 16004KT CLR 07/04 A3006 RMK AO1 SLP192
METAR CYNL 301300Z AUTO 18003KT CLR 01/01 A3005 RMK AO1 SLP194
METAR CYNL 301200Z AUTO 19003KT CLR 02/02 A3005 RMK AO1 SLP191
METAR CYNL 301100Z AUTO 24004KT CLR 03/03 A3004 RMK AO1 SLP185
METAR CYNL 301000Z AUTO 23003KT CLR 03/03 A3003 RMK AO1 SLP182
METAR CYNL 300900Z AUTO 23003KT CLR 04/04 A3003 RMK AO1 SLP180
METAR CYNL 300800Z AUTO 21003KT CLR 05/05 A3002 RMK AO1 PRESRR SLP176
METAR CYNL 300700Z AUTO 23004KT CLR 05/05 A2999 RMK AO1 PRESRR SLP166
METAR CYNL 300600Z AUTO 24005KT CLR 06/06 A2996 RMK AO1 SLP158
METAR CYNL 300500Z AUTO 23005KT CLR 06/06 A2994 RMK AO1 SLP151
METAR CYNL 300400Z AUTO 23003KT CLR 07/07 A2993 RMK AO1 SLP146
METAR CYNL 300300Z AUTO 23004KT CLR 07/07 A2992 RMK AO1 PRESRR SLP140
METAR CYNL 300200Z AUTO 23004KT CLR 09/09 A2989 RMK AO1 SLP130
METAR CYNL 300100Z AUTO 25004KT CLR 10/10 A2987 RMK AO1 PRESRR SLP122
METAR CYNL 300000Z AUTO 26005KT BKN039 12/11 A2985 RMK AO1 SLP113
SPECI CYNL 292323Z AUTO 27004KT FEW009 SCT016 BKN033 11/11 A2984 RMK AO1 PRESRR SLP111
METAR CYNL 292300Z AUTO 26005KT FEW025 BKN033 11/11 A2984 RMK AO1 PRESRR SLP108
SPECI CYNL 292201Z AUTO 28005KT FEW008 SCT012 BKN058 11/11 A2980 RMK AO1 PRESRR SLP096
METAR CYNL 292200Z AUTO 28005KT SCT008 BKN023 11/11 A2980 RMK AO1 PRESRR SLP096
SPECI CYNL 292159Z AUTO 28005KT SCT008 BKN023 11/11 A2980 RMK AO1 PRESRR SLP096
SPECI CYNL 292154Z AUTO 28006KT FEW006 SCT008 BKN012 11/11 A2980 RMK AO1 SLP096
SPECI CYNL 292110Z AUTO 32004KT BKN008 BKN012 OVC014 11/11 A2975 RMK AO1 SLP077
SPECI CYNL 292108Z AUTO 33005KT SCT008 BKN010 BKN012 11/11 A2975 RMK AO1 SLP077
SPECI CYNL 292105Z AUTO 32005KT BKN009 BKN013 OVC014 11/11 A2975 RMK AO1 SLP078
METAR CYNL 292100Z AUTO 32004KT SCT008 BKN010 OVC013 11/11 A2975 RMK AO1 SLP079
SPECI CYNL 292059Z AUTO 32003KT BKN009 OVC013 11/11 A2975 RMK AO1 SLP080
SPECI CYNL 292056Z AUTO 32003KT SCT008 OVC011 11/11 A2976 RMK AO1 SLP081
SPECI CYNL 292052Z AUTO 33003KT BKN008 OVC012 11/11 A2976 RMK AO1 SLP082
SPECI CYNL 292051Z AUTO 32002KT FEW007 SCT008 OVC011 11/11 A2976 RMK AO1 SLP082
SPECI CYNL 292037Z AUTO 27004KT VV010 11/11 A2977 RMK AO1 SLP084
METAR CYNL 292000Z AUTO 30006KT OVC005 11/11 A2971 RMK AO1 SLP066
SPECI CYNL 291948Z AUTO 30007KT BKN005 10/10 A2968 RMK AO1 SLP056
SPECI CYNL 291947Z AUTO 31007KT BKN004 10/10 A2968 RMK AO1 SLP055
SPECI CYNL 291933Z AUTO 29006KT VV005 10/10 A2971 RMK AO1 SLP063
SPECI CYNL 291932Z AUTO 29005KT VV004 10/10 A2970 RMK AO1 SLP062
SPECI CYNL 291914Z AUTO 29003KT FEW004 SCT006 BKN047 10/10 A2973 RMK AO1 SLP072
METAR CYNL 291900Z AUTO 00000KT SCT004 BKN006 BKN008 10/10 A2973 RMK AO1 SLP072
SPECI CYNL 291850Z AUTO 27002KT VV005 10/10 A2974 RMK AO1 SLP074
SPECI CYNL 291841Z AUTO 00000KT VV004 10/10 A2974 RMK AO1 SLP074
SPECI CYNL 291832Z AUTO 21003KT VV009 10/10 A2975 RMK AO1 SLP078
SPECI CYNL 291821Z AUTO ///// FEW004 SCT014 BKN052 09/09 A RMK AO1 SLPNO
SPECI CYNL 291815Z AUTO 21003KT SCT005 BKN045 09/09 A2974 RMK AO1 SLP076
SPECI CYNL 291810Z AUTO 22005KT SCT004 BKN014 OVC044 10/09 A2975 RMK AO1 SLP080
SPECI CYNL 291809Z AUTO 22005KT SCT004 BKN015 OVC043 10/10 A2975 RMK AO1 SLP080
SPECI CYNL 291803Z AUTO 00000KT FEW004 BKN007 OVC041 09/09 A2972 RMK AO1 SLP069
METAR CYNL 291800Z AUTO 00000KT VV012 09/09 A2972 RMK AO1 SLP069
SPECI CYNL 291759Z AUTO 00000KT VV011 09/09 A RMK AO1 SLPNO
SPECI CYNL 291757Z AUTO ///// VV007 A RMK AO1 SLPNO
SPECI CYNL 291752Z AUTO 00000KT BKN005 BKN007 OVC037 A RMK AO1 SLPNO
SPECI CYNL 291751Z AUTO 23002KT A RMK AO1 SLPNO
SPECI CYNL 291749Z AUTO ///// SCT005 BKN007 OVC013 09/09 A RMK AO1 SLPNO
SPECI CYNL 291731Z AUTO 20003KT VV006 09/09 A2974 RMK AO1 SLP076
SPECI CYNL 291723Z AUTO 20005KT FEW008 BKN011 OVC013 09/09 A2974 RMK AO1 SLP075
METAR CYNL 291700Z AUTO 20005KT BKN014 09/09 A2975 RMK AO1 SLP079
SPECI CYNL 291631Z AUTO 09002KT FEW010 SCT021 BKN031 09/09 A2972 RMK AO1 SLP069
SPECI CYNL 291621Z AUTO 15002KT FEW009 BKN021 BKN036 09/09 A2974 RMK AO1 SLP075
SPECI CYNL 291617Z AUTO 14003KT BKN021 OVC039 09/09 A2974 RMK AO1 SLP074
SPECI CYNL 291615Z AUTO 00000KT SCT021 BKN028 OVC044 09/09 A2973 RMK AO1 SLP072
METAR CYNL 291600Z AUTO 00000KT VV033 09/09 A2973 RMK AO1 SLP073
SPECI CYNL 291559Z AUTO 00000KT VV030 09/09 A2973 RMK AO1 SLP072
SPECI CYNL 291555Z AUTO 11005KT 080V140 VV028 09/09 A2973 RMK AO1 SLP070
SPECI CYNL 291538Z AUTO 09004KT 050V130 FEW006 SCT026 10/08 A2973 RMK AO1 SLP070
SPECI CYNL 291534Z AUTO 00000KT VV020 10/08 A2971 RMK AO1 SLP065
SPECI CYNL 291533Z AUTO 00000KT FEW006 SCT035 10/08 A2971 RMK AO1 SLP064
METAR CYNL 291500Z AUTO 06004KT CLR 10/08 A2971 RMK AO1 SLP063
METAR CYNL 291400Z AUTO 10003KT CLR 10/08 A2973 RMK AO1 SLP069
METAR CYNL 291300Z AUTO 11005KT CLR 10/08 A2973 RMK AO1 PRESFR SLP070
METAR CYNL 291200Z AUTO 14005KT CLR 10/08 A2976 RMK AO1 PRESRR SLP081
METAR CYNL 291100Z AUTO 10006KT CLR 10/07 A2973 RMK AO1 SLP069
METAR CYNL 291000Z AUTO 11006KT FEW110 11/08 A2973 RMK AO1 SLP068
METAR CYNL 290900Z AUTO 12007KT CLR 11/08 A2973 RMK AO1 SLP068
METAR CYNL 290800Z AUTO 12007KT CLR 12/08 A2974 RMK AO1 SLP070
METAR CYNL 290700Z AUTO 13009KT CLR 12/08 A2974 RMK AO1 SLP071
METAR CYNL 290600Z AUTO 11007KT CLR 12/08 A2974 RMK AO1 SLP072
METAR CYNL 290500Z AUTO 12006KT CLR 13/08 A2975 RMK AO1 SLP074
METAR CYNL 290400Z AUTO 15004KT CLR 13/08 A2976 RMK AO1 SLP077
METAR CYNL 290300Z AUTO 14008KT FEW120 13/08 A2974 RMK AO1 SLP073
METAR CYNL 290200Z AUTO 13006KT FEW150 13/08 A2973 RMK AO1 PRESRR SLP070
METAR CYNL 290100Z AUTO 12012G19KT CLR 13/08 A2970 RMK AO1 SLP062
METAR CYNL 290000Z AUTO 13015G24KT CLR 14/08 A2971 RMK AO1 SLP063
METAR CYNL 282300Z AUTO 13017G24KT CLR 14/08 A2970 RMK AO1 SLP062
METAR CYNL 282100Z AUTO 13014G25KT CLR 14/08 A2970 RMK AO1 SLP059
METAR CYNL 282000Z AUTO 13015G23KT CLR 14/07 A2971 RMK AO1 SLP062
METAR CYNL 281900Z AUTO 12015G23KT CLR 14/07 A2972 RMK AO1 SLP065
METAR CYNL 281800Z AUTO 11013G23KT CLR 14/07 A2972 RMK AO1 PRESFR SLP067
METAR CYNL 281700Z AUTO 11014KT CLR 12/07 A2975 RMK AO1 SLP078
METAR CYNL 281600Z AUTO 13011G17KT FEW012 10/07 A2977 RMK AO1 SLP086
SPECI CYNL 281543Z AUTO 12010G20KT SCT011 10/07 A2977 RMK AO1 SLP086
SPECI CYNL 281514Z AUTO 12009G19KT OVC010 09/07 A2977 RMK AO1 SLP089
METAR CYNL 281500Z AUTO 13011G18KT BKN009 OVC011 09/07 A2977 RMK AO1 SLP090
METAR CYNL 281400Z AUTO 12012G19KT OVC008 09/07 A2977 RMK AO1 SLP089
METAR CYNL 281300Z AUTO 12012KT OVC007 09/08 A2977 RMK AO1 SLP089
METAR CYNL 281200Z AUTO 12011G18KT OVC008 09/08 A2978 RMK AO1 SLP093
METAR CYNL 281100Z AUTO 13010G18KT OVC007 09/09 A2977 RMK AO1 SLP087
METAR CYNL 281000Z AUTO 12010G15KT OVC007 10/09 A2976 RMK AO1 SLP086
METAR CYNL 280900Z AUTO 12009KT OVC007 10/09 A2977 RMK AO1 SLP088
METAR CYNL 280800Z AUTO 12010KT OVC007 10/09 A2975 RMK AO1 SLP083
METAR CYNL 280700Z AUTO 13011KT OVC007 10/09 A2975 RMK AO1 SLP080
METAR CYNL 280600Z AUTO 12010G15KT OVC008 10/09 A2976 RMK AO1 SLP085
METAR CYNL 280500Z AUTO 11008KT OVC007 10/09 A2977 RMK AO1 SLP088
METAR CYNL 280400Z AUTO 11008KT OVC007 09/09 A2976 RMK AO1 SLP086
METAR CYNL 280300Z AUTO 09009KT OVC007 09/09 A2974 RMK AO1 SLP080
METAR CYNL 280200Z AUTO 10009KT BKN008 OVC011 09/08 A2974 RMK AO1 SLP081
METAR CYNL 280100Z AUTO 09011KT OVC009 09/08 A2974 RMK AO1 SLP080
SPECI CYNL 280057Z AUTO 10011KT BKN009 OVC011 09/08 A2974 RMK AO1 SLP080
SPECI CYNL 280029Z AUTO 09011G17KT BKN011 09/08 A2973 RMK AO1 SLP078
SPECI CYNL 280027Z AUTO 08013KT SCT011 BKN076 09/08 A2973 RMK AO1 SLP078
SPECI CYNL 280023Z AUTO 09011KT BKN011 09/08 A2973 RMK AO1 SLP078
SPECI CYNL 280001Z AUTO 09010G17KT SCT010 BKN076 09/08 A2973 RMK AO1 SLP077
METAR CYNL 280000Z AUTO 09011G17KT BKN010 BKN076 09/08 A2973 RMK AO1 SLP077
SPECI CYNL 272311Z AUTO 09008G18KT BKN011 09/07 A2974 RMK AO1 SLP079
METAR CYNL 272300Z AUTO 08010G16KT FEW011 SCT078 09/07 A2973 RMK AO1 SLP077
METAR CYNL 272200Z AUTO 08011KT FEW010 09/07 A2974 RMK AO1 SLP079
SPECI CYNL 272109Z AUTO 07010KT FEW008 BKN070 09/07 A2973 RMK AO1 SLP077
METAR CYNL 272100Z AUTO 08011KT BKN070 09/07 A2973 RMK AO1 SLP077
METAR CYNL 272000Z AUTO 09011KT SCT076 09/07 A2974 RMK AO1 SLP079
METAR CYNL 271900Z AUTO 10010KT SCT068 09/07 A2975 RMK AO1 SLP083
METAR CYNL 271800Z AUTO 10008KT FEW009 SCT037 09/07 A2975 RMK AO1 SLP083
SPECI CYNL 271712Z AUTO 09011KT SCT008 BKN033 OVC170 08/07 A2975 RMK AO1 SLP085
METAR CYNL 271700Z AUTO 10010KT BKN008 08/07 A2975 RMK AO1 SLP085
METAR CYNL 271600Z AUTO 08007KT OVC006 07/07 A2976 RMK AO1 SLP088
SPECI CYNL 271541Z AUTO 08007KT BKN006 OVC036 07/07 A2976 RMK AO1 SLP089
SPECI CYNL 271529Z AUTO 08008KT FEW007 OVC035 07/07 A2975 RMK AO1 SLP087
METAR CYNL 271500Z AUTO 08008KT BKN033 07/07 A2975 RMK AO1 SLP087
SPECI CYNL 271428Z AUTO 09006KT SCT005 BKN045 07/07 A2975 RMK AO1 SLP085
SPECI CYNL 271427Z AUTO 09006KT SCT005 BKN029 07/07 A2975 RMK AO1 SLP085
METAR CYNL 271400Z AUTO 09006KT SCT004 OVC006 07/07 A2975 RMK AO1 SLP086
SPECI CYNL 271358Z AUTO 09006KT SCT004 OVC006 07/07 A2975 RMK AO1 SLP086
SPECI CYNL 271357Z AUTO 09007KT BKN004 OVC006 07/07 A2975 RMK AO1 SLP086
SPECI CYNL 271348Z AUTO 08007KT VV006 07/07 A2975 RMK AO1 SLP087
METAR CYNL 271300Z AUTO 09006KT OVC004 07/07 A2975 RMK AO1 SLP087
SPECI CYNL 271240Z AUTO 09006KT BKN005 OVC052 07/07 A2976 RMK AO1 SLP085
SPECI CYNL 271227Z AUTO 08006KT FEW005 SCT043 BKN052 07/07 A2975 RMK AO1 SLP085
METAR CYNL 271200Z AUTO 09005KT FEW052 07/07 A2975 RMK AO1 SLP085
METAR CYNL 271100Z AUTO 08005KT CLR 07/07 A2976 RMK AO1 SLP084
METAR CYNL 271000Z AUTO 07005KT SCT046 07/07 A2977 RMK AO1 SLP084
METAR CYNL 270900Z AUTO 08004KT CLR 07/07 A2977 RMK AO1 SLP084
SPECI CYNL 270805Z AUTO 06004KT FEW008 SCT042 07/06 A2977 RMK AO1 SLP085
METAR CYNL 270800Z AUTO 06005KT FEW042 07/06 A2978 RMK AO1 SLP085
SPECI CYNL 270727Z AUTO 06003KT FEW006 SCT054 08/05 A2977 RMK AO1 SLP085
METAR CYNL 270700Z AUTO 06006KT FEW060 08/05 A2977 RMK AO1 SLP083
METAR CYNL 270600Z AUTO 08006KT FEW062 08/04 A2978 RMK AO1 SLP087
METAR CYNL 270500Z AUTO 07005KT FEW100 07/04 A2978 RMK AO1 SLP089
METAR CYNL 270400Z AUTO 07005KT CLR 07/04 A2979 RMK AO1 SLP093
METAR CYNL 270300Z AUTO 07004KT FEW054 08/03 A2979 RMK AO1 SLP093
METAR CYNL 270200Z AUTO 08004KT SCT054 08/03 A2979 RMK AO1 SLP098
METAR CYNL 270100Z AUTO 07004KT CLR 09/02 A2978 RMK AO1 SLP094
METAR CYNL 270000Z AUTO 10006KT CLR 12/01 A2978 RMK AO1 SLP091
METAR CYNL 262300Z AUTO 10009KT BKN070 14/03 A2977 RMK AO1 SLP087
METAR CYNL 262200Z AUTO 19003KT SCT070 16/M01 A2977 RMK AO1 SLP086
METAR CYNL 262100Z AUTO 00000KT CLR 16/M00 A2977 RMK AO1 SLP084
METAR CYNL 262000Z AUTO 15003KT CLR 16/M00 A2977 RMK AO1 SLP083
METAR CYNL 261900Z AUTO 00000KT CLR 15/M01 A2977 RMK AO1 SLP085
METAR CYNL 261800Z AUTO 15002KT CLR 14/00 A2978 RMK AO1 SLP088
METAR CYNL 261700Z AUTO 01003KT 330V040 CLR 12/03 A2978 RMK AO1 SLP091
METAR CYNL 261600Z AUTO 00000KT FEW092 12/08 A2977 RMK AO1 SLP092
METAR CYNL 261500Z AUTO 00000KT SCT094 08/07 A2977 RMK AO1 SLP094
METAR CYNL 261400Z AUTO 28002KT BKN098 06/06 A2976 RMK AO1 SLP091
METAR CYNL 261300Z AUTO 26003KT BKN096 06/06 A2975 RMK AO1 SLP087
METAR CYNL 261200Z AUTO 29003KT BKN096 06/06 A2974 RMK AO1 SLP080
METAR CYNL 261100Z AUTO 00000KT BKN098 05/05 A2973 RMK AO1 SLP074
METAR CYNL 261000Z AUTO 29004KT FEW100 07/06 A2972 RMK AO1 SLP067
METAR CYNL 260900Z AUTO 30005KT BKN110 08/07 A2971 RMK AO1 SLP063
METAR CYNL 260800Z AUTO 28007KT SCT100 08/06 A2971 RMK AO1 SLP065
METAR CYNL 260700Z AUTO 24005KT FEW049 06/06 A2970 RMK AO1 SLP063
METAR CYNL 260600Z AUTO 23005KT FEW060 SCT088 06/06 A2970 RMK AO1 SLP063
METAR CYNL 260500Z AUTO 29004KT 250V340 FEW041 05/04 A2968 RMK AO1 SLP062
METAR CYNL 260400Z AUTO 24003KT CLR 05/05 A2968 RMK AO1 SLP061
METAR CYNL 260300Z AUTO 25002KT CLR 06/05 A2967 RMK AO1 SLP059
METAR CYNL 260200Z AUTO 00000KT CLR 08/06 A2968 RMK AO1 SLP060
METAR CYNL 260100Z AUTO 26003KT CLR 11/07 A2966 RMK AO1 SLP052
METAR CYNL 260000Z AUTO 29003KT CLR 15/06 A2965 RMK AO1 SLP043
METAR CYNL 252300Z AUTO 26004KT CLR 15/07 A2963 RMK AO1 SLP039
METAR CYNL 252200Z AUTO 23004KT CLR 15/06 A2963 RMK AO1 SLP036
METAR CYNL 252100Z AUTO 33002KT FEW032 15/06 A2963 RMK AO1 SLP038
SPECI CYNL 252013Z AUTO 35003KT SCT028 14/06 A2963 RMK AO1 SLP038
METAR CYNL 252000Z AUTO 00000KT BKN028 15/06 A2963 RMK AO1 SLP038
SPECI CYNL 251950Z AUTO 12003KT BKN028 14/06 A2962 RMK AO1 SLP038
METAR CYNL 251900Z AUTO 15004KT CLR 12/06 A2961 RMK AO1 SLP036
METAR CYNL 251800Z AUTO 16003KT CLR 11/06 A2961 RMK AO1 SLP036
SPECI CYNL 251742Z AUTO 18004KT SCT012 11/07 A2962 RMK AO1 SLP038
SPECI CYNL 251740Z AUTO 18003KT SCT012 BKN015 11/06 A2962 RMK AO1 SLP038
SPECI CYNL 251710Z AUTO 00000KT OVC010 09/06 A2962 RMK AO1 SLP042
METAR CYNL 251700Z AUTO 23003KT OVC009 09/06 A2962 RMK AO1 SLP042
METAR CYNL 251600Z AUTO 16003KT OVC007 07/06 A2961 RMK AO1 SLP041
METAR CYNL 251500Z AUTO 16005KT OVC007 07/06 A2962 RMK AO1 SLP042
SPECI CYNL 251439Z AUTO 17004KT BKN007 OVC042 07/06 A2962 RMK AO1 SLP042
SPECI CYNL 251422Z AUTO 16003KT FEW007 OVC041 07/06 A2962 RMK AO1 SLP043
METAR CYNL 251400Z AUTO 17004KT OVC040 06/06 A2962 RMK AO1 SLP046
METAR CYNL 251300Z AUTO 18005KT BKN040 06/06 A2963 RMK AO1 SLP046
METAR CYNL 251200Z AUTO 13002KT FEW030 BKN037 06/06 A2963 RMK AO1 SLP046
SPECI CYNL 251117Z AUTO 17003KT FEW021 SCT028 BKN039 06/06 A2963 RMK AO1 SLP045
SPECI CYNL 251104Z AUTO 20003KT SCT020 BKN028 06/05 A2963 RMK AO1 SLP046
METAR CYNL 251100Z AUTO 19004KT BKN020 06/05 A2963 RMK AO1 SLP046
SPECI CYNL 251001Z AUTO 18005KT BKN021 BKN026 06/05 A2963 RMK AO1 SLP046
METAR CYNL 251000Z AUTO 19005KT SCT021 BKN026 06/05 A2963 RMK AO1 SLP046
SPECI CYNL 250959Z AUTO 19005KT SCT022 BKN026 06/05 A2963 RMK AO1 SLP046
SPECI CYNL 250950Z AUTO 18005KT OVC024 06/05 A2963 RMK AO1 SLP047
SPECI CYNL 250922Z AUTO 19005KT BKN029 06/05 A2964 RMK AO1 SLP050
METAR CYNL 250900Z AUTO 18004KT SCT034 06/05 A2965 RMK AO1 SLP053
METAR CYNL 250800Z AUTO 15002KT FEW049 05/05 A2965 RMK AO1 PRESFR SLP054
METAR CYNL 250700Z AUTO 15002KT BKN040 05/05 A2968 RMK AO1 SLP064
METAR CYNL 250600Z AUTO 00000KT SCT056 BKN068 05/04 A2970 RMK AO1 SLP071
METAR CYNL 250500Z AUTO 11002KT BKN082 05/04 A2970 RMK AO1 SLP071
SPECI CYNL 250406Z AUTO 09002KT FEW015 SCT022 05/04 A2971 RMK AO1 SLP077
METAR CYNL 250400Z AUTO 08003KT SCT016 BKN023 05/04 A2972 RMK AO1 SLP077
METAR CYNL 250300Z AUTO 15003KT OVC018 05/04 A2973 RMK AO1 SLP084
METAR CYNL 250200Z AUTO 14003KT BKN023 05/04 A2975 RMK AO1 PRESFR SLP090
SPECI CYNL 250150Z AUTO 00000KT BKN023 05/04 A2975 RMK AO1 SLP091
SPECI CYNL 250148Z AUTO 00000KT SCT023 05/04 A2975 RMK AO1 SLP091
SPECI CYNL 250147Z AUTO 00000KT BKN023 05/04 A2975 RMK AO1 SLP091
SPECI CYNL 250146Z AUTO 00000KT SCT023 05/04 A2975 RMK AO1 SLP091
SPECI CYNL 250145Z AUTO 00000KT BKN023 05/04 A2975 RMK AO1 SLP091
SPECI CYNL 250120Z AUTO 19003KT SCT023 06/04 A2977 RMK AO1 SLP096
SPECI CYNL 250105Z AUTO 00000KT FEW018 BKN022 06/04 A2978 RMK AO1 SLP099
METAR CYNL 250100Z AUTO 00000KT FEW018 SCT023 06/04 A2978 RMK AO1 SLP099
SPECI CYNL 250050Z AUTO 00000KT SCT017 06/04 A2978 RMK AO1 PRESFR SLP099
METAR CYNL 250000Z AUTO 27004KT OVC015 06/03 A2979 RMK AO1 PRESFR SLP102
SPECI CYNL 242358Z AUTO 26004KT OVC015 06/03 A2979 RMK AO1 PRESFR SLP102
SPECI CYNL 242352Z AUTO 27004KT OVC014 06/03 A2979 RMK AO1 SLP103
SPECI CYNL 242349Z AUTO 27004KT OVC015 06/03 A2979 RMK AO1 SLP103
SPECI CYNL 242323Z AUTO 27003KT OVC014 06/03 A2980 RMK AO1 SLP108
METAR CYNL 242300Z AUTO 28005KT OVC015 06/03 A2981 RMK AO1 SLP110
SPECI CYNL 242229Z AUTO 28006KT OVC015 06/03 A2982 RMK AO1 SLP113
METAR CYNL 242200Z AUTO 29006KT OVC014 06/03 A2983 RMK AO1 SLP116
METAR CYNL 242100Z AUTO 31006KT OVC011 07/04 A2983 RMK AO1 SLP118
SPECI CYNL 242036Z AUTO 31009KT FEW009 OVC011 07/04 A2985 RMK AO1 SLP123
SPECI CYNL 242026Z AUTO 29008KT BKN010 OVC014 07/04 A2985 RMK AO1 SLP122
SPECI CYNL 242025Z AUTO 29008KT BKN009 BKN011 OVC014 07/04 A2985 RMK AO1 SLP122
SPECI CYNL 242023Z AUTO 31009KT SCT008 BKN010 OVC014 07/04 A2985 RMK AO1 SLP122
SPECI CYNL 242021Z AUTO 29011KT BKN009 BKN012 OVC014 07/04 A2985 RMK AO1 SLP122
SPECI CYNL 242020Z AUTO 30010KT SCT008 BKN010 OVC013 07/04 A2985 RMK AO1 SLP122
METAR CYNL 242000Z AUTO 29007KT BKN008 BKN010 OVC012 06/05 A2986 RMK AO1 SLP125
METAR CYNL 241900Z AUTO 31008G15KT BKN006 OVC013 06/05 A2986 RMK AO1 PRESFR SLP128
METAR CYNL 241800Z AUTO 31011G17KT BKN009 BKN011 OVC014 06/04 A2989 RMK AO1 SLP137
SPECI CYNL 241757Z AUTO 30008KT BKN009 BKN011 OVC014 06/05 A2989 RMK AO1 SLP137
SPECI CYNL 241716Z AUTO 31008KT SCT009 BKN013 BKN230 06/05 A2989 RMK AO1 SLP138
SPECI CYNL 241714Z AUTO 31005KT SCT009 BKN024 06/05 A2989 RMK AO1 SLP138
SPECI CYNL 241709Z AUTO 32007KT SCT009 BKN013 BKN042 06/05 A2989 RMK AO1 SLP136
METAR CYNL 241700Z AUTO 31007KT BKN009 BKN014 06/05 A2989 RMK AO1 SLP137
SPECI CYNL 241652Z AUTO 33007KT BKN008 BKN022 06/05 A2989 RMK AO1 SLP137
SPECI CYNL 241651Z AUTO 34007KT SCT008 BKN010 BKN022 06/05 A2989 RMK AO1 SLP138
SPECI CYNL 241641Z AUTO 33005KT BKN008 BKN015 06/05 A2990 RMK AO1 SLP140
SPECI CYNL 241635Z AUTO 32006KT FEW006 SCT009 BKN011 06/05 A2990 RMK AO1 SLP141
SPECI CYNL 241632Z AUTO 32009KT FEW006 SCT009 BKN015 06/05 A2990 RMK AO1 SLP141
SPECI CYNL 241629Z AUTO 31008KT FEW006 SCT009 BKN012 06/05 A2990 RMK AO1 SLP141
SPECI CYNL 241628Z AUTO 32008KT FEW006 BKN008 BKN020 06/05 A2990 RMK AO1 SLP141
SPECI CYNL 241625Z AUTO 32008KT FEW006 SCT009 BKN011 06/05 A2990 RMK AO1 SLP141
METAR CYNL 241600Z AUTO 32007KT BKN007 OVC011 05/05 A2991 RMK AO1 SLP143
SPECI CYNL 241549Z AUTO 32009KT BKN008 BKN012 05/05 A2991 RMK AO1 SLP143
SPECI CYNL 241548Z AUTO 33008KT SCT008 BKN010 BKN012 05/05 A2991 RMK AO1 SLP143
SPECI CYNL 241533Z AUTO 33010G16KT SCT006 BKN009 OVC018 05/05 A2991 RMK AO1 SLP143
SPECI CYNL 241530Z AUTO 33009G16KT SCT006 BKN010 BKN012 05/05 A2991 RMK AO1 SLP143
METAR CYNL 241500Z AUTO 33008G15KT BKN008 BKN011 05/05 A2991 RMK AO1 SLP142
SPECI CYNL 241458Z AUTO 33008G20KT BKN008 BKN013 05/05 A2991 RMK AO1 SLP140
SPECI CYNL 241454Z AUTO 33009G20KT SCT008 BKN011 BKN013 05/05 A2991 RMK AO1 SLP140
SPECI CYNL 241416Z AUTO 33011KT SCT007 BKN009 OVC012 05/05 A2991 RMK AO1 SLP140
SPECI CYNL 241415Z AUTO 32011G16KT SCT007 BKN010 OVC014 05/05 A2991 RMK AO1 SLP140
SPECI CYNL 241411Z AUTO 32009G16KT SCT007 BKN009 OVC012 05/05 A2990 RMK AO1 SLP139
METAR CYNL 241400Z AUTO 33009G18KT SCT007 OVC012 05/05 A2991 RMK AO1 SLP141
SPECI CYNL 241359Z AUTO 33008G18KT SCT007 OVC012 05/05 A2991 RMK AO1 SLP141
SPECI CYNL 241356Z AUTO 33011G18KT VV013 05/05 A2991 RMK AO1 SLP142
METAR CYNL 241300Z AUTO 33008G18KT OVC008 05/05 A2990 RMK AO1 SLP139
METAR CYNL 241200Z AUTO 33009G18KT BKN007 OVC009 05/05 A2989 RMK AO1 SLP136
METAR CYNL 241100Z AUTO 33012G17KT OVC006 05/05 A2988 RMK AO1 SLP134
METAR CYNL 241000Z AUTO 33010G19KT BKN007 BKN009 OVC013 05/05 A2987 RMK AO1 SLP128
SPECI CYNL 240945Z AUTO 33011G19KT BKN008 OVC012 05/05 A2986 RMK AO1 SLP127
SPECI CYNL 240917Z AUTO 33010G19KT FEW006 SCT009 OVC012 05/05 A2986 RMK AO1 SLP126
SPECI CYNL 240915Z AUTO 33010G19KT SCT006 BKN009 OVC012 05/05 A2986 RMK AO1 SLP126
SPECI CYNL 240914Z AUTO 33008G19KT VV013 05/05 A2986 RMK AO1 SLP126
SPECI CYNL 240912Z AUTO 33012G19KT SCT006 BKN009 OVC012 05/05 A2986 RMK AO1 SLP126
SPECI CYNL 240911Z AUTO 33012G19KT SCT006 BKN010 OVC014 05/05 A2986 RMK AO1 SLP126
SPECI CYNL 240907Z AUTO 32009G18KT SCT006 BKN009 OVC012 05/05 A2986 RMK AO1 SLP126
SPECI CYNL 240902Z AUTO 33010G22KT VV010 05/05 A2986 RMK AO1 SLP125
METAR CYNL 240900Z AUTO 33011G22KT VV009 05/05 A2986 RMK AO1 SLP125
SPECI CYNL 240818Z AUTO 33010G21KT BKN008 OVC012 05/05 A2985 RMK AO1 PRESRR SLP122
METAR CYNL 240800Z AUTO 33012G18KT SCT007 BKN011 OVC014 05/05 A2984 RMK AO1 PRESRR SLP120
SPECI CYNL 240744Z AUTO 33010G20KT SCT006 OVC011 05/05 A2984 RMK AO1 SLP116
SPECI CYNL 240743Z AUTO 33009G20KT VV009 05/05 A2983 RMK AO1 SLP116
SPECI CYNL 240705Z AUTO 33012G24KT FEW007 OVC012 05/05 A2982 RMK AO1 SLP111
METAR CYNL 240700Z AUTO 34012G23KT VV011 05/05 A2982 RMK AO1 SLP111
SPECI CYNL 240639Z AUTO 34012G20KT SCT007 OVC011 05/05 A2982 RMK AO1 PRESRR SLP108
SPECI CYNL 240638Z AUTO 33012G20KT SCT007 BKN009 OVC011 05/05 A2982 RMK AO1 PRESRR SLP108
SPECI CYNL 240637Z AUTO 33011G20KT SCT007 OVC011 05/05 A2982 RMK AO1 PRESRR SLP108
SPECI CYNL 240635Z AUTO 34011G20KT BKN007 OVC011 05/05 A2982 RMK AO1 PRESRR SLP108
SPECI CYNL 240634Z AUTO 34011G20KT SCT007 OVC011 05/05 A2982 RMK AO1 PRESRR SLP108
SPECI CYNL 240632Z AUTO 34013G23KT FEW006 BKN008 OVC011 05/05 A2981 RMK AO1 PRESRR SLP107
SPECI CYNL 240631Z AUTO 33013G23KT SCT006 OVC011 05/05 A2981 RMK AO1 PRESRR SLP107
SPECI CYNL 240618Z AUTO 33012G19KT FEW005 SCT007 BKN009 05/05 A2981 RMK AO1 PRESRR SLP106
SPECI CYNL 240617Z AUTO 33009G19KT VV010 05/05 A2981 RMK AO1 PRESRR SLP105
METAR CYNL 240600Z AUTO 34011G21KT BKN007 BKN010 OVC012 05/05 A2980 RMK AO1 PRESRR SLP104
SPECI CYNL 240519Z AUTO 34012G23KT BKN007 BKN010 OVC013 06/06 A2979 RMK AO1 PRESRR SLP099
SPECI CYNL 240518Z AUTO 34013G23KT SCT007 BKN010 OVC013 06/05 A2979 RMK AO1 PRESRR SLP098
SPECI CYNL 240511Z AUTO 34012G21KT BKN006 BKN010 OVC013 06/06 A2979 RMK AO1 PRESRR SLP097
SPECI CYNL 240508Z AUTO 33012G20KT SCT006 BKN010 OVC013 06/06 A2978 RMK AO1 PRESRR SLP096
SPECI CYNL 240507Z AUTO 33010G20KT SCT006 BKN009 OVC013 06/06 A2978 RMK AO1 PRESRR SLP096
METAR CYNL 240500Z AUTO 34013G20KT FEW007 BKN010 OVC013 06/06 A2978 RMK AO1 PRESRR SLP095
SPECI CYNL 240422Z AUTO 35012G21KT FEW005 SCT008 BKN012 07/06 A2976 RMK AO1 PRESRR SLP088
SPECI CYNL 240420Z AUTO 34014G21KT FEW006 BKN009 OVC013 07/07 A2976 RMK AO1 PRESRR SLP088
SPECI CYNL 240415Z AUTO 34010G18KT SCT006 OVC011 07/07 A2976 RMK AO1 PRESRR SLP087
SPECI CYNL 240413Z AUTO 35010G18KT VV009 07/07 A2976 RMK AO1 PRESRR SLP086
SPECI CYNL 240402Z AUTO 34012G22KT VV010 07/07 A2975 RMK AO1 PRESRR SLP084
METAR CYNL 240400Z AUTO 35015G22KT VV008 07/07 A2975 RMK AO1 PRESRR SLP084
SPECI CYNL 240344Z AUTO 34012G21KT SCT004 BKN006 OVC014 08/08 A2974 RMK AO1 SLP081
SPECI CYNL 240339Z AUTO 35012G21KT VV010 08/08 A2974 RMK AO1 SLP080
SPECI CYNL 240333Z AUTO 35009G19KT VV005 08/08 A2974 RMK AO1 SLP079
SPECI CYNL 240331Z AUTO 35010G19KT BKN004 OVC006 08/08 A2974 RMK AO1 SLP079
SPECI CYNL 240330Z AUTO 35014G19KT OVC005 08/08 A2974 RMK AO1 SLP079
SPECI CYNL 240328Z AUTO 35012G19KT BKN004 BKN006 OVC008 08/08 A2974 RMK AO1 SLP078
METAR CYNL 240300Z AUTO 33010G16KT OVC006 09/09 A2972 RMK AO1 SLP072
SPECI CYNL 240226Z AUTO 32007G16KT SCT003 BKN006 OVC009 09/09 A2972 RMK AO1 SLP073